<?xml version="1.0" encoding="UTF-8" standalone="no" ?>
<gpx xmlns="http://www.topografix.com/GPX/1/1" xmlns:xsi="http://www.w3.org/2001/XMLSchema-instance" xsi:schemaLocation="http://www.topografix.com/GPX/1/1 http://www.topografix.com/GPX/1/1/gpx.xsd" version="1.1" creator="VisuGPX - https://www.visugpx.com">
  <metadata>
    <name>Lagnes et le mur de la peste</name>
    <desc><![CDATA[Trés belle balade entre Lagnes et le mur de la peste]]></desc>
  </metadata>
  <trk>
    <name><![CDATA[2016-02-08 14:38:04]]></name>
    <trkseg>
      <trkpt lat="43.89204" lon="5.11353">
        <ele>125.11</ele>
        <time>2016-02-08T08:19:50Z</time>
      </trkpt>
      <trkpt lat="43.89204" lon="5.11353">
        <ele>125.11</ele>
        <time>2016-02-08T08:19:51Z</time>
      </trkpt>
      <trkpt lat="43.89204" lon="5.11353">
        <ele>109.25</ele>
        <time>2016-02-08T08:19:54Z</time>
      </trkpt>
      <trkpt lat="43.89204" lon="5.11353">
        <ele>109.25</ele>
        <time>2016-02-08T08:19:55Z</time>
      </trkpt>
      <trkpt lat="43.89206" lon="5.11352">
        <ele>109.25</ele>
        <time>2016-02-08T08:20:18Z</time>
      </trkpt>
      <trkpt lat="43.89208" lon="5.1135">
        <ele>109.25</ele>
        <time>2016-02-08T08:20:38Z</time>
      </trkpt>
      <trkpt lat="43.89212" lon="5.11348">
        <ele>109.25</ele>
        <time>2016-02-08T08:21:04Z</time>
      </trkpt>
      <trkpt lat="43.89209" lon="5.11354">
        <ele>109.25</ele>
        <time>2016-02-08T08:21:29Z</time>
      </trkpt>
      <trkpt lat="43.89206" lon="5.11353">
        <ele>109.25</ele>
        <time>2016-02-08T08:21:54Z</time>
      </trkpt>
      <trkpt lat="43.89208" lon="5.11354">
        <ele>109.25</ele>
        <time>2016-02-08T08:22:21Z</time>
      </trkpt>
      <trkpt lat="43.89208" lon="5.11353">
        <ele>109.73</ele>
        <time>2016-02-08T08:22:59Z</time>
      </trkpt>
      <trkpt lat="43.89205" lon="5.11356">
        <ele>108.29</ele>
        <time>2016-02-08T08:23:09Z</time>
      </trkpt>
      <trkpt lat="43.89204" lon="5.11365">
        <ele>108.29</ele>
        <time>2016-02-08T08:23:28Z</time>
      </trkpt>
      <trkpt lat="43.89204" lon="5.11369">
        <ele>107.81</ele>
        <time>2016-02-08T08:23:59Z</time>
      </trkpt>
      <trkpt lat="43.89203" lon="5.11369">
        <ele>107.81</ele>
        <time>2016-02-08T08:24:26Z</time>
      </trkpt>
      <trkpt lat="43.89205" lon="5.11364">
        <ele>107.81</ele>
        <time>2016-02-08T08:24:43Z</time>
      </trkpt>
      <trkpt lat="43.89204" lon="5.11368">
        <ele>107.81</ele>
        <time>2016-02-08T08:24:48Z</time>
      </trkpt>
      <trkpt lat="43.89213" lon="5.11382">
        <ele>107.81</ele>
        <time>2016-02-08T08:25:03Z</time>
      </trkpt>
      <trkpt lat="43.89217" lon="5.11386">
        <ele>107.81</ele>
        <time>2016-02-08T08:25:18Z</time>
      </trkpt>
      <trkpt lat="43.89217" lon="5.11388">
        <ele>107.81</ele>
        <time>2016-02-08T08:25:39Z</time>
      </trkpt>
      <trkpt lat="43.89227" lon="5.11403">
        <ele>108.77</ele>
        <time>2016-02-08T08:25:53Z</time>
      </trkpt>
      <trkpt lat="43.89234" lon="5.11412">
        <ele>108.77</ele>
        <time>2016-02-08T08:26:07Z</time>
      </trkpt>
      <trkpt lat="43.89249" lon="5.1142">
        <ele>109.73</ele>
        <time>2016-02-08T08:26:22Z</time>
      </trkpt>
      <trkpt lat="43.89263" lon="5.1143">
        <ele>110.21</ele>
        <time>2016-02-08T08:26:39Z</time>
      </trkpt>
      <trkpt lat="43.89275" lon="5.1144">
        <ele>110.69</ele>
        <time>2016-02-08T08:26:53Z</time>
      </trkpt>
      <trkpt lat="43.89287" lon="5.11455">
        <ele>112.13</ele>
        <time>2016-02-08T08:27:09Z</time>
      </trkpt>
      <trkpt lat="43.89303" lon="5.1146">
        <ele>112.61</ele>
        <time>2016-02-08T08:27:25Z</time>
      </trkpt>
      <trkpt lat="43.89317" lon="5.1147">
        <ele>114.05</ele>
        <time>2016-02-08T08:27:43Z</time>
      </trkpt>
      <trkpt lat="43.89321" lon="5.1147">
        <ele>115.01</ele>
        <time>2016-02-08T08:28:04Z</time>
      </trkpt>
      <trkpt lat="43.89333" lon="5.11479">
        <ele>115.01</ele>
        <time>2016-02-08T08:28:22Z</time>
      </trkpt>
      <trkpt lat="43.89337" lon="5.11484">
        <ele>115.01</ele>
        <time>2016-02-08T08:28:28Z</time>
      </trkpt>
      <trkpt lat="43.89339" lon="5.11499">
        <ele>116.46</ele>
        <time>2016-02-08T08:28:40Z</time>
      </trkpt>
      <trkpt lat="43.89346" lon="5.11521">
        <ele>118.38</ele>
        <time>2016-02-08T08:28:58Z</time>
      </trkpt>
      <trkpt lat="43.89341" lon="5.11534">
        <ele>119.34</ele>
        <time>2016-02-08T08:29:13Z</time>
      </trkpt>
      <trkpt lat="43.89339" lon="5.11537">
        <ele>119.82</ele>
        <time>2016-02-08T08:29:15Z</time>
      </trkpt>
      <trkpt lat="43.89326" lon="5.11544">
        <ele>120.3</ele>
        <time>2016-02-08T08:29:32Z</time>
      </trkpt>
      <trkpt lat="43.89302" lon="5.11549">
        <ele>120.78</ele>
        <time>2016-02-08T08:29:52Z</time>
      </trkpt>
      <trkpt lat="43.89301" lon="5.11549">
        <ele>120.78</ele>
        <time>2016-02-08T08:29:53Z</time>
      </trkpt>
      <trkpt lat="43.89282" lon="5.11553">
        <ele>122.71</ele>
        <time>2016-02-08T08:30:13Z</time>
      </trkpt>
      <trkpt lat="43.89264" lon="5.11557">
        <ele>125.11</ele>
        <time>2016-02-08T08:30:33Z</time>
      </trkpt>
      <trkpt lat="43.89254" lon="5.11551">
        <ele>126.07</ele>
        <time>2016-02-08T08:30:43Z</time>
      </trkpt>
      <trkpt lat="43.89232" lon="5.11551">
        <ele>127.51</ele>
        <time>2016-02-08T08:31:04Z</time>
      </trkpt>
      <trkpt lat="43.89213" lon="5.11559">
        <ele>128.95</ele>
        <time>2016-02-08T08:31:26Z</time>
      </trkpt>
      <trkpt lat="43.89213" lon="5.11582">
        <ele>130.88</ele>
        <time>2016-02-08T08:31:45Z</time>
      </trkpt>
      <trkpt lat="43.89216" lon="5.11588">
        <ele>131.36</ele>
        <time>2016-02-08T08:31:50Z</time>
      </trkpt>
      <trkpt lat="43.89221" lon="5.11604">
        <ele>131.84</ele>
        <time>2016-02-08T08:32:02Z</time>
      </trkpt>
      <trkpt lat="43.89219" lon="5.11613">
        <ele>132.32</ele>
        <time>2016-02-08T08:32:22Z</time>
      </trkpt>
      <trkpt lat="43.89219" lon="5.11609">
        <ele>132.32</ele>
        <time>2016-02-08T08:32:32Z</time>
      </trkpt>
      <trkpt lat="43.89219" lon="5.11603">
        <ele>132.32</ele>
        <time>2016-02-08T08:32:36Z</time>
      </trkpt>
      <trkpt lat="43.89216" lon="5.11601">
        <ele>132.32</ele>
        <time>2016-02-08T08:32:39Z</time>
      </trkpt>
      <trkpt lat="43.89206" lon="5.11583">
        <ele>130.4</ele>
        <time>2016-02-08T08:32:59Z</time>
      </trkpt>
      <trkpt lat="43.892" lon="5.11566">
        <ele>128.47</ele>
        <time>2016-02-08T08:33:19Z</time>
      </trkpt>
      <trkpt lat="43.89194" lon="5.11558">
        <ele>127.03</ele>
        <time>2016-02-08T08:33:33Z</time>
      </trkpt>
      <trkpt lat="43.89187" lon="5.11548">
        <ele>125.11</ele>
        <time>2016-02-08T08:33:47Z</time>
      </trkpt>
      <trkpt lat="43.8918" lon="5.11535">
        <ele>122.71</ele>
        <time>2016-02-08T08:34:03Z</time>
      </trkpt>
      <trkpt lat="43.8918" lon="5.11534">
        <ele>122.71</ele>
        <time>2016-02-08T08:34:04Z</time>
      </trkpt>
      <trkpt lat="43.89171" lon="5.11528">
        <ele>120.78</ele>
        <time>2016-02-08T08:34:18Z</time>
      </trkpt>
      <trkpt lat="43.89169" lon="5.11523">
        <ele>120.3</ele>
        <time>2016-02-08T08:34:24Z</time>
      </trkpt>
      <trkpt lat="43.89161" lon="5.11513">
        <ele>119.34</ele>
        <time>2016-02-08T08:34:38Z</time>
      </trkpt>
      <trkpt lat="43.89153" lon="5.11502">
        <ele>118.38</ele>
        <time>2016-02-08T08:34:52Z</time>
      </trkpt>
      <trkpt lat="43.89153" lon="5.11501">
        <ele>118.38</ele>
        <time>2016-02-08T08:34:53Z</time>
      </trkpt>
      <trkpt lat="43.89152" lon="5.11498">
        <ele>117.9</ele>
        <time>2016-02-08T08:34:56Z</time>
      </trkpt>
      <trkpt lat="43.89148" lon="5.11488">
        <ele>116.46</ele>
        <time>2016-02-08T08:35:10Z</time>
      </trkpt>
      <trkpt lat="43.89146" lon="5.11487">
        <ele>115.98</ele>
        <time>2016-02-08T08:35:28Z</time>
      </trkpt>
      <trkpt lat="43.89143" lon="5.11485">
        <ele>114.53</ele>
        <time>2016-02-08T08:35:44Z</time>
      </trkpt>
      <trkpt lat="43.89135" lon="5.11489">
        <ele>112.61</ele>
        <time>2016-02-08T08:36:10Z</time>
      </trkpt>
      <trkpt lat="43.89123" lon="5.11499">
        <ele>112.61</ele>
        <time>2016-02-08T08:36:27Z</time>
      </trkpt>
      <trkpt lat="43.89113" lon="5.11502">
        <ele>113.09</ele>
        <time>2016-02-08T08:36:42Z</time>
      </trkpt>
      <trkpt lat="43.89095" lon="5.11509">
        <ele>114.05</ele>
        <time>2016-02-08T08:37:01Z</time>
      </trkpt>
      <trkpt lat="43.89089" lon="5.11514">
        <ele>115.98</ele>
        <time>2016-02-08T08:37:18Z</time>
      </trkpt>
      <trkpt lat="43.89089" lon="5.11539">
        <ele>116.94</ele>
        <time>2016-02-08T08:37:36Z</time>
      </trkpt>
      <trkpt lat="43.89095" lon="5.11559">
        <ele>117.42</ele>
        <time>2016-02-08T08:37:56Z</time>
      </trkpt>
      <trkpt lat="43.89098" lon="5.11586">
        <ele>117.9</ele>
        <time>2016-02-08T08:38:20Z</time>
      </trkpt>
      <trkpt lat="43.89097" lon="5.11591">
        <ele>117.9</ele>
        <time>2016-02-08T08:38:37Z</time>
      </trkpt>
      <trkpt lat="43.89089" lon="5.11619">
        <ele>119.82</ele>
        <time>2016-02-08T08:38:58Z</time>
      </trkpt>
      <trkpt lat="43.89076" lon="5.11634">
        <ele>122.22</ele>
        <time>2016-02-08T08:39:21Z</time>
      </trkpt>
      <trkpt lat="43.89059" lon="5.11655">
        <ele>124.15</ele>
        <time>2016-02-08T08:39:46Z</time>
      </trkpt>
      <trkpt lat="43.89042" lon="5.1167">
        <ele>125.59</ele>
        <time>2016-02-08T08:40:12Z</time>
      </trkpt>
      <trkpt lat="43.8902" lon="5.11677">
        <ele>127.51</ele>
        <time>2016-02-08T08:40:36Z</time>
      </trkpt>
      <trkpt lat="43.89002" lon="5.11681">
        <ele>129.43</ele>
        <time>2016-02-08T08:41:02Z</time>
      </trkpt>
      <trkpt lat="43.88982" lon="5.11697">
        <ele>129.43</ele>
        <time>2016-02-08T08:41:26Z</time>
      </trkpt>
      <trkpt lat="43.88972" lon="5.11725">
        <ele>130.4</ele>
        <time>2016-02-08T08:41:48Z</time>
      </trkpt>
      <trkpt lat="43.88976" lon="5.11735">
        <ele>132.8</ele>
        <time>2016-02-08T08:42:09Z</time>
      </trkpt>
      <trkpt lat="43.88984" lon="5.11754">
        <ele>134.72</ele>
        <time>2016-02-08T08:42:30Z</time>
      </trkpt>
      <trkpt lat="43.88987" lon="5.11782">
        <ele>136.16</ele>
        <time>2016-02-08T08:42:52Z</time>
      </trkpt>
      <trkpt lat="43.88991" lon="5.11809">
        <ele>137.61</ele>
        <time>2016-02-08T08:43:14Z</time>
      </trkpt>
      <trkpt lat="43.88989" lon="5.11841">
        <ele>140.49</ele>
        <time>2016-02-08T08:43:37Z</time>
      </trkpt>
      <trkpt lat="43.88987" lon="5.1184">
        <ele>139.53</ele>
        <time>2016-02-08T08:43:43Z</time>
      </trkpt>
      <trkpt lat="43.88988" lon="5.11847">
        <ele>139.53</ele>
        <time>2016-02-08T08:44:09Z</time>
      </trkpt>
      <trkpt lat="43.88987" lon="5.11846">
        <ele>139.53</ele>
        <time>2016-02-08T08:44:32Z</time>
      </trkpt>
      <trkpt lat="43.88991" lon="5.11877">
        <ele>141.93</ele>
        <time>2016-02-08T08:45:00Z</time>
      </trkpt>
      <trkpt lat="43.88994" lon="5.11883">
        <ele>143.37</ele>
        <time>2016-02-08T08:45:19Z</time>
      </trkpt>
      <trkpt lat="43.88993" lon="5.11889">
        <ele>144.82</ele>
        <time>2016-02-08T08:45:25Z</time>
      </trkpt>
      <trkpt lat="43.89016" lon="5.1191">
        <ele>145.3</ele>
        <time>2016-02-08T08:45:49Z</time>
      </trkpt>
      <trkpt lat="43.89029" lon="5.11929">
        <ele>146.26</ele>
        <time>2016-02-08T08:46:14Z</time>
      </trkpt>
      <trkpt lat="43.89042" lon="5.11948">
        <ele>147.7</ele>
        <time>2016-02-08T08:46:35Z</time>
      </trkpt>
      <trkpt lat="43.89048" lon="5.11968">
        <ele>149.62</ele>
        <time>2016-02-08T08:46:55Z</time>
      </trkpt>
      <trkpt lat="43.89057" lon="5.11986">
        <ele>151.06</ele>
        <time>2016-02-08T08:47:18Z</time>
      </trkpt>
      <trkpt lat="43.89073" lon="5.12002">
        <ele>152.03</ele>
        <time>2016-02-08T08:47:41Z</time>
      </trkpt>
      <trkpt lat="43.89082" lon="5.12033">
        <ele>153.47</ele>
        <time>2016-02-08T08:48:06Z</time>
      </trkpt>
      <trkpt lat="43.8909" lon="5.12055">
        <ele>154.91</ele>
        <time>2016-02-08T08:48:30Z</time>
      </trkpt>
      <trkpt lat="43.89092" lon="5.12083">
        <ele>157.31</ele>
        <time>2016-02-08T08:48:54Z</time>
      </trkpt>
      <trkpt lat="43.89099" lon="5.12095">
        <ele>158.75</ele>
        <time>2016-02-08T08:49:13Z</time>
      </trkpt>
      <trkpt lat="43.89106" lon="5.12116">
        <ele>160.68</ele>
        <time>2016-02-08T08:49:34Z</time>
      </trkpt>
      <trkpt lat="43.89114" lon="5.12143">
        <ele>161.16</ele>
        <time>2016-02-08T08:49:58Z</time>
      </trkpt>
      <trkpt lat="43.89129" lon="5.12159">
        <ele>161.16</ele>
        <time>2016-02-08T08:50:21Z</time>
      </trkpt>
      <trkpt lat="43.89139" lon="5.12163">
        <ele>159.24</ele>
        <time>2016-02-08T08:50:45Z</time>
      </trkpt>
      <trkpt lat="43.89149" lon="5.12173">
        <ele>158.27</ele>
        <time>2016-02-08T08:51:01Z</time>
      </trkpt>
      <trkpt lat="43.89166" lon="5.12192">
        <ele>156.35</ele>
        <time>2016-02-08T08:51:27Z</time>
      </trkpt>
      <trkpt lat="43.89186" lon="5.122">
        <ele>157.31</ele>
        <time>2016-02-08T08:51:51Z</time>
      </trkpt>
      <trkpt lat="43.89204" lon="5.12208">
        <ele>158.27</ele>
        <time>2016-02-08T08:52:14Z</time>
      </trkpt>
      <trkpt lat="43.89218" lon="5.12223">
        <ele>158.27</ele>
        <time>2016-02-08T08:52:36Z</time>
      </trkpt>
      <trkpt lat="43.89226" lon="5.12244">
        <ele>160.2</ele>
        <time>2016-02-08T08:52:59Z</time>
      </trkpt>
      <trkpt lat="43.89236" lon="5.12251">
        <ele>161.64</ele>
        <time>2016-02-08T08:53:22Z</time>
      </trkpt>
      <trkpt lat="43.89241" lon="5.12272">
        <ele>164.52</ele>
        <time>2016-02-08T08:53:46Z</time>
      </trkpt>
      <trkpt lat="43.89242" lon="5.12292">
        <ele>165.48</ele>
        <time>2016-02-08T08:54:08Z</time>
      </trkpt>
      <trkpt lat="43.89247" lon="5.12317">
        <ele>167.41</ele>
        <time>2016-02-08T08:54:30Z</time>
      </trkpt>
      <trkpt lat="43.89258" lon="5.12329">
        <ele>167.89</ele>
        <time>2016-02-08T08:54:50Z</time>
      </trkpt>
      <trkpt lat="43.8927" lon="5.12355">
        <ele>168.37</ele>
        <time>2016-02-08T08:55:17Z</time>
      </trkpt>
      <trkpt lat="43.89287" lon="5.12349">
        <ele>168.85</ele>
        <time>2016-02-08T08:55:36Z</time>
      </trkpt>
      <trkpt lat="43.8929" lon="5.12343">
        <ele>169.33</ele>
        <time>2016-02-08T08:55:55Z</time>
      </trkpt>
      <trkpt lat="43.89295" lon="5.12328">
        <ele>168.37</ele>
        <time>2016-02-08T08:56:14Z</time>
      </trkpt>
      <trkpt lat="43.89307" lon="5.12313">
        <ele>170.29</ele>
        <time>2016-02-08T08:56:34Z</time>
      </trkpt>
      <trkpt lat="43.89321" lon="5.12313">
        <ele>170.77</ele>
        <time>2016-02-08T08:56:52Z</time>
      </trkpt>
      <trkpt lat="43.8934" lon="5.1232">
        <ele>172.21</ele>
        <time>2016-02-08T08:57:13Z</time>
      </trkpt>
      <trkpt lat="43.89352" lon="5.12333">
        <ele>173.17</ele>
        <time>2016-02-08T08:57:35Z</time>
      </trkpt>
      <trkpt lat="43.89362" lon="5.12343">
        <ele>174.62</ele>
        <time>2016-02-08T08:57:53Z</time>
      </trkpt>
      <trkpt lat="43.8938" lon="5.12359">
        <ele>175.1</ele>
        <time>2016-02-08T08:58:14Z</time>
      </trkpt>
      <trkpt lat="43.8939" lon="5.1237">
        <ele>176.54</ele>
        <time>2016-02-08T08:58:31Z</time>
      </trkpt>
      <trkpt lat="43.89398" lon="5.12381">
        <ele>179.9</ele>
        <time>2016-02-08T08:58:52Z</time>
      </trkpt>
      <trkpt lat="43.89408" lon="5.12388">
        <ele>182.79</ele>
        <time>2016-02-08T08:59:10Z</time>
      </trkpt>
      <trkpt lat="43.89408" lon="5.12407">
        <ele>186.63</ele>
        <time>2016-02-08T08:59:31Z</time>
      </trkpt>
      <trkpt lat="43.89409" lon="5.12417">
        <ele>188.56</ele>
        <time>2016-02-08T08:59:48Z</time>
      </trkpt>
      <trkpt lat="43.89409" lon="5.12417">
        <ele>188.56</ele>
        <time>2016-02-08T09:00:04Z</time>
      </trkpt>
      <trkpt lat="43.89408" lon="5.12417">
        <ele>187.59</ele>
        <time>2016-02-08T09:00:34Z</time>
      </trkpt>
      <trkpt lat="43.89407" lon="5.12414">
        <ele>187.59</ele>
        <time>2016-02-08T09:01:13Z</time>
      </trkpt>
      <trkpt lat="43.8941" lon="5.12416">
        <ele>189.04</ele>
        <time>2016-02-08T09:01:36Z</time>
      </trkpt>
      <trkpt lat="43.89409" lon="5.12416">
        <ele>188.08</ele>
        <time>2016-02-08T09:01:59Z</time>
      </trkpt>
      <trkpt lat="43.8941" lon="5.12414">
        <ele>188.08</ele>
        <time>2016-02-08T09:02:31Z</time>
      </trkpt>
      <trkpt lat="43.89408" lon="5.12418">
        <ele>188.56</ele>
        <time>2016-02-08T09:03:01Z</time>
      </trkpt>
      <trkpt lat="43.89409" lon="5.12418">
        <ele>188.56</ele>
        <time>2016-02-08T09:03:27Z</time>
      </trkpt>
      <trkpt lat="43.89409" lon="5.12417">
        <ele>188.56</ele>
        <time>2016-02-08T09:03:58Z</time>
      </trkpt>
      <trkpt lat="43.8941" lon="5.12418">
        <ele>190</ele>
        <time>2016-02-08T09:04:30Z</time>
      </trkpt>
      <trkpt lat="43.89409" lon="5.12417">
        <ele>190.48</ele>
        <time>2016-02-08T09:05:01Z</time>
      </trkpt>
      <trkpt lat="43.89407" lon="5.12425">
        <ele>191.44</ele>
        <time>2016-02-08T09:05:20Z</time>
      </trkpt>
      <trkpt lat="43.89407" lon="5.12433">
        <ele>192.88</ele>
        <time>2016-02-08T09:05:37Z</time>
      </trkpt>
      <trkpt lat="43.89399" lon="5.1243">
        <ele>194.32</ele>
        <time>2016-02-08T09:05:55Z</time>
      </trkpt>
      <trkpt lat="43.89392" lon="5.12425">
        <ele>195.28</ele>
        <time>2016-02-08T09:06:07Z</time>
      </trkpt>
      <trkpt lat="43.89389" lon="5.12422">
        <ele>195.28</ele>
        <time>2016-02-08T09:06:21Z</time>
      </trkpt>
      <trkpt lat="43.89383" lon="5.12422">
        <ele>195.28</ele>
        <time>2016-02-08T09:06:36Z</time>
      </trkpt>
      <trkpt lat="43.89374" lon="5.1242">
        <ele>195.77</ele>
        <time>2016-02-08T09:06:49Z</time>
      </trkpt>
      <trkpt lat="43.89369" lon="5.12426">
        <ele>197.69</ele>
        <time>2016-02-08T09:07:07Z</time>
      </trkpt>
      <trkpt lat="43.89375" lon="5.12437">
        <ele>200.57</ele>
        <time>2016-02-08T09:07:26Z</time>
      </trkpt>
      <trkpt lat="43.89376" lon="5.12445">
        <ele>203.46</ele>
        <time>2016-02-08T09:07:45Z</time>
      </trkpt>
      <trkpt lat="43.89372" lon="5.12449">
        <ele>205.86</ele>
        <time>2016-02-08T09:08:00Z</time>
      </trkpt>
      <trkpt lat="43.89383" lon="5.12453">
        <ele>207.78</ele>
        <time>2016-02-08T09:08:17Z</time>
      </trkpt>
      <trkpt lat="43.89389" lon="5.12465">
        <ele>209.7</ele>
        <time>2016-02-08T09:08:35Z</time>
      </trkpt>
      <trkpt lat="43.89383" lon="5.1247">
        <ele>212.59</ele>
        <time>2016-02-08T09:08:50Z</time>
      </trkpt>
      <trkpt lat="43.89376" lon="5.12471">
        <ele>214.03</ele>
        <time>2016-02-08T09:09:04Z</time>
      </trkpt>
      <trkpt lat="43.89366" lon="5.12469">
        <ele>214.03</ele>
        <time>2016-02-08T09:09:20Z</time>
      </trkpt>
      <trkpt lat="43.89364" lon="5.12469">
        <ele>215.47</ele>
        <time>2016-02-08T09:09:38Z</time>
      </trkpt>
      <trkpt lat="43.89354" lon="5.12467">
        <ele>214.03</ele>
        <time>2016-02-08T09:09:56Z</time>
      </trkpt>
      <trkpt lat="43.89344" lon="5.12475">
        <ele>216.43</ele>
        <time>2016-02-08T09:10:15Z</time>
      </trkpt>
      <trkpt lat="43.89337" lon="5.12484">
        <ele>217.88</ele>
        <time>2016-02-08T09:10:30Z</time>
      </trkpt>
      <trkpt lat="43.89327" lon="5.12496">
        <ele>219.8</ele>
        <time>2016-02-08T09:10:49Z</time>
      </trkpt>
      <trkpt lat="43.89324" lon="5.125">
        <ele>220.76</ele>
        <time>2016-02-08T09:11:06Z</time>
      </trkpt>
      <trkpt lat="43.89315" lon="5.12507">
        <ele>221.72</ele>
        <time>2016-02-08T09:11:22Z</time>
      </trkpt>
      <trkpt lat="43.89313" lon="5.12506">
        <ele>222.2</ele>
        <time>2016-02-08T09:11:52Z</time>
      </trkpt>
      <trkpt lat="43.89312" lon="5.12507">
        <ele>222.68</ele>
        <time>2016-02-08T09:12:24Z</time>
      </trkpt>
      <trkpt lat="43.89313" lon="5.12507">
        <ele>223.64</ele>
        <time>2016-02-08T09:12:44Z</time>
      </trkpt>
      <trkpt lat="43.89313" lon="5.12506">
        <ele>223.64</ele>
        <time>2016-02-08T09:13:09Z</time>
      </trkpt>
      <trkpt lat="43.89312" lon="5.12506">
        <ele>223.64</ele>
        <time>2016-02-08T09:13:33Z</time>
      </trkpt>
      <trkpt lat="43.89308" lon="5.12512">
        <ele>225.57</ele>
        <time>2016-02-08T09:13:49Z</time>
      </trkpt>
      <trkpt lat="43.89299" lon="5.12516">
        <ele>225.57</ele>
        <time>2016-02-08T09:14:04Z</time>
      </trkpt>
      <trkpt lat="43.89285" lon="5.12519">
        <ele>224.61</ele>
        <time>2016-02-08T09:14:22Z</time>
      </trkpt>
      <trkpt lat="43.89274" lon="5.12522">
        <ele>224.61</ele>
        <time>2016-02-08T09:14:39Z</time>
      </trkpt>
      <trkpt lat="43.89266" lon="5.12518">
        <ele>222.68</ele>
        <time>2016-02-08T09:14:56Z</time>
      </trkpt>
      <trkpt lat="43.89264" lon="5.1251">
        <ele>220.28</ele>
        <time>2016-02-08T09:15:14Z</time>
      </trkpt>
      <trkpt lat="43.8926" lon="5.12511">
        <ele>219.32</ele>
        <time>2016-02-08T09:15:28Z</time>
      </trkpt>
      <trkpt lat="43.89248" lon="5.12515">
        <ele>217.4</ele>
        <time>2016-02-08T09:15:45Z</time>
      </trkpt>
      <trkpt lat="43.89238" lon="5.12523">
        <ele>216.91</ele>
        <time>2016-02-08T09:16:00Z</time>
      </trkpt>
      <trkpt lat="43.89231" lon="5.1253">
        <ele>216.91</ele>
        <time>2016-02-08T09:16:16Z</time>
      </trkpt>
      <trkpt lat="43.89222" lon="5.12527">
        <ele>215.95</ele>
        <time>2016-02-08T09:16:32Z</time>
      </trkpt>
      <trkpt lat="43.89211" lon="5.12529">
        <ele>215.47</ele>
        <time>2016-02-08T09:16:48Z</time>
      </trkpt>
      <trkpt lat="43.89202" lon="5.12524">
        <ele>213.07</ele>
        <time>2016-02-08T09:17:04Z</time>
      </trkpt>
      <trkpt lat="43.89196" lon="5.12525">
        <ele>214.51</ele>
        <time>2016-02-08T09:17:13Z</time>
      </trkpt>
      <trkpt lat="43.89192" lon="5.1252">
        <ele>214.51</ele>
        <time>2016-02-08T09:17:18Z</time>
      </trkpt>
      <trkpt lat="43.89185" lon="5.12511">
        <ele>216.91</ele>
        <time>2016-02-08T09:17:35Z</time>
      </trkpt>
      <trkpt lat="43.89177" lon="5.12509">
        <ele>219.32</ele>
        <time>2016-02-08T09:17:50Z</time>
      </trkpt>
      <trkpt lat="43.89168" lon="5.12496">
        <ele>221.24</ele>
        <time>2016-02-08T09:18:10Z</time>
      </trkpt>
      <trkpt lat="43.89164" lon="5.12482">
        <ele>222.2</ele>
        <time>2016-02-08T09:18:24Z</time>
      </trkpt>
      <trkpt lat="43.89158" lon="5.1247">
        <ele>222.68</ele>
        <time>2016-02-08T09:18:38Z</time>
      </trkpt>
      <trkpt lat="43.89156" lon="5.12452">
        <ele>222.68</ele>
        <time>2016-02-08T09:18:53Z</time>
      </trkpt>
      <trkpt lat="43.89152" lon="5.12438">
        <ele>221.72</ele>
        <time>2016-02-08T09:19:06Z</time>
      </trkpt>
      <trkpt lat="43.89149" lon="5.12431">
        <ele>221.24</ele>
        <time>2016-02-08T09:19:13Z</time>
      </trkpt>
      <trkpt lat="43.89142" lon="5.12415">
        <ele>219.8</ele>
        <time>2016-02-08T09:19:30Z</time>
      </trkpt>
      <trkpt lat="43.8914" lon="5.12404">
        <ele>219.8</ele>
        <time>2016-02-08T09:19:45Z</time>
      </trkpt>
      <trkpt lat="43.89146" lon="5.12395">
        <ele>217.4</ele>
        <time>2016-02-08T09:20:00Z</time>
      </trkpt>
      <trkpt lat="43.89152" lon="5.12388">
        <ele>214.99</ele>
        <time>2016-02-08T09:20:17Z</time>
      </trkpt>
      <trkpt lat="43.89144" lon="5.12381">
        <ele>214.99</ele>
        <time>2016-02-08T09:20:31Z</time>
      </trkpt>
      <trkpt lat="43.89138" lon="5.12378">
        <ele>213.55</ele>
        <time>2016-02-08T09:20:43Z</time>
      </trkpt>
      <trkpt lat="43.89135" lon="5.12361">
        <ele>211.15</ele>
        <time>2016-02-08T09:20:59Z</time>
      </trkpt>
      <trkpt lat="43.8913" lon="5.12354">
        <ele>209.7</ele>
        <time>2016-02-08T09:21:12Z</time>
      </trkpt>
      <trkpt lat="43.89121" lon="5.12352">
        <ele>209.22</ele>
        <time>2016-02-08T09:21:27Z</time>
      </trkpt>
      <trkpt lat="43.89104" lon="5.12343">
        <ele>207.78</ele>
        <time>2016-02-08T09:21:43Z</time>
      </trkpt>
      <trkpt lat="43.89096" lon="5.12336">
        <ele>207.78</ele>
        <time>2016-02-08T09:21:58Z</time>
      </trkpt>
      <trkpt lat="43.89097" lon="5.12333">
        <ele>207.78</ele>
        <time>2016-02-08T09:22:01Z</time>
      </trkpt>
      <trkpt lat="43.89097" lon="5.12318">
        <ele>207.78</ele>
        <time>2016-02-08T09:22:16Z</time>
      </trkpt>
      <trkpt lat="43.89098" lon="5.12317">
        <ele>209.22</ele>
        <time>2016-02-08T09:22:43Z</time>
      </trkpt>
      <trkpt lat="43.89094" lon="5.12314">
        <ele>209.7</ele>
        <time>2016-02-08T09:23:12Z</time>
      </trkpt>
      <trkpt lat="43.89088" lon="5.12303">
        <ele>210.19</ele>
        <time>2016-02-08T09:23:26Z</time>
      </trkpt>
      <trkpt lat="43.89083" lon="5.12279">
        <ele>209.22</ele>
        <time>2016-02-08T09:23:46Z</time>
      </trkpt>
      <trkpt lat="43.89083" lon="5.12267">
        <ele>206.82</ele>
        <time>2016-02-08T09:24:08Z</time>
      </trkpt>
      <trkpt lat="43.89081" lon="5.12263">
        <ele>206.82</ele>
        <time>2016-02-08T09:24:43Z</time>
      </trkpt>
      <trkpt lat="43.89081" lon="5.1226">
        <ele>206.82</ele>
        <time>2016-02-08T09:25:15Z</time>
      </trkpt>
      <trkpt lat="43.89083" lon="5.12246">
        <ele>206.34</ele>
        <time>2016-02-08T09:25:34Z</time>
      </trkpt>
      <trkpt lat="43.89075" lon="5.12229">
        <ele>206.34</ele>
        <time>2016-02-08T09:25:51Z</time>
      </trkpt>
      <trkpt lat="43.89069" lon="5.12214">
        <ele>207.3</ele>
        <time>2016-02-08T09:26:08Z</time>
      </trkpt>
      <trkpt lat="43.89064" lon="5.12196">
        <ele>208.74</ele>
        <time>2016-02-08T09:26:26Z</time>
      </trkpt>
      <trkpt lat="43.89058" lon="5.1218">
        <ele>209.22</ele>
        <time>2016-02-08T09:26:45Z</time>
      </trkpt>
      <trkpt lat="43.89046" lon="5.1216">
        <ele>209.7</ele>
        <time>2016-02-08T09:27:06Z</time>
      </trkpt>
      <trkpt lat="43.89035" lon="5.12145">
        <ele>208.74</ele>
        <time>2016-02-08T09:27:27Z</time>
      </trkpt>
      <trkpt lat="43.89032" lon="5.12126">
        <ele>205.86</ele>
        <time>2016-02-08T09:27:48Z</time>
      </trkpt>
      <trkpt lat="43.89028" lon="5.12118">
        <ele>205.86</ele>
        <time>2016-02-08T09:28:03Z</time>
      </trkpt>
      <trkpt lat="43.89019" lon="5.12101">
        <ele>205.38</ele>
        <time>2016-02-08T09:28:22Z</time>
      </trkpt>
      <trkpt lat="43.89007" lon="5.12087">
        <ele>205.38</ele>
        <time>2016-02-08T09:28:41Z</time>
      </trkpt>
      <trkpt lat="43.88993" lon="5.12071">
        <ele>206.34</ele>
        <time>2016-02-08T09:29:02Z</time>
      </trkpt>
      <trkpt lat="43.88983" lon="5.12058">
        <ele>207.3</ele>
        <time>2016-02-08T09:29:22Z</time>
      </trkpt>
      <trkpt lat="43.88974" lon="5.12047">
        <ele>207.3</ele>
        <time>2016-02-08T09:29:38Z</time>
      </trkpt>
      <trkpt lat="43.88967" lon="5.12038">
        <ele>207.3</ele>
        <time>2016-02-08T09:29:54Z</time>
      </trkpt>
      <trkpt lat="43.88961" lon="5.12031">
        <ele>207.3</ele>
        <time>2016-02-08T09:30:10Z</time>
      </trkpt>
      <trkpt lat="43.88958" lon="5.12033">
        <ele>207.78</ele>
        <time>2016-02-08T09:30:29Z</time>
      </trkpt>
      <trkpt lat="43.88958" lon="5.12034">
        <ele>206.82</ele>
        <time>2016-02-08T09:30:46Z</time>
      </trkpt>
      <trkpt lat="43.88958" lon="5.12033">
        <ele>206.82</ele>
        <time>2016-02-08T09:30:59Z</time>
      </trkpt>
      <trkpt lat="43.88957" lon="5.12032">
        <ele>206.82</ele>
        <time>2016-02-08T09:31:33Z</time>
      </trkpt>
      <trkpt lat="43.88957" lon="5.12033">
        <ele>207.3</ele>
        <time>2016-02-08T09:31:57Z</time>
      </trkpt>
      <trkpt lat="43.88958" lon="5.12033">
        <ele>207.3</ele>
        <time>2016-02-08T09:32:26Z</time>
      </trkpt>
      <trkpt lat="43.88958" lon="5.12033">
        <ele>207.3</ele>
        <time>2016-02-08T09:32:53Z</time>
      </trkpt>
      <trkpt lat="43.88957" lon="5.12033">
        <ele>207.3</ele>
        <time>2016-02-08T09:33:25Z</time>
      </trkpt>
      <trkpt lat="43.88957" lon="5.12034">
        <ele>207.3</ele>
        <time>2016-02-08T09:33:56Z</time>
      </trkpt>
      <trkpt lat="43.88957" lon="5.12033">
        <ele>207.3</ele>
        <time>2016-02-08T09:34:32Z</time>
      </trkpt>
      <trkpt lat="43.88957" lon="5.12033">
        <ele>207.3</ele>
        <time>2016-02-08T09:35:09Z</time>
      </trkpt>
      <trkpt lat="43.88958" lon="5.12033">
        <ele>207.3</ele>
        <time>2016-02-08T09:35:48Z</time>
      </trkpt>
      <trkpt lat="43.88957" lon="5.12034">
        <ele>207.3</ele>
        <time>2016-02-08T09:36:18Z</time>
      </trkpt>
      <trkpt lat="43.88957" lon="5.12034">
        <ele>207.78</ele>
        <time>2016-02-08T09:36:48Z</time>
      </trkpt>
      <trkpt lat="43.88957" lon="5.12034">
        <ele>207.78</ele>
        <time>2016-02-08T09:37:24Z</time>
      </trkpt>
      <trkpt lat="43.88957" lon="5.12034">
        <ele>207.78</ele>
        <time>2016-02-08T09:37:58Z</time>
      </trkpt>
      <trkpt lat="43.88969" lon="5.12045">
        <ele>200.09</ele>
        <time>2016-02-08T09:47:15Z</time>
      </trkpt>
      <trkpt lat="43.8897" lon="5.12041">
        <ele>201.53</ele>
        <time>2016-02-08T09:47:30Z</time>
      </trkpt>
      <trkpt lat="43.88969" lon="5.12029">
        <ele>203.94</ele>
        <time>2016-02-08T09:47:37Z</time>
      </trkpt>
      <trkpt lat="43.88969" lon="5.12028">
        <ele>202.49</ele>
        <time>2016-02-08T09:47:39Z</time>
      </trkpt>
      <trkpt lat="43.88969" lon="5.12028">
        <ele>204.42</ele>
        <time>2016-02-08T09:47:41Z</time>
      </trkpt>
      <trkpt lat="43.88963" lon="5.1203">
        <ele>202.98</ele>
        <time>2016-02-08T09:47:56Z</time>
      </trkpt>
      <trkpt lat="43.88959" lon="5.12032">
        <ele>203.94</ele>
        <time>2016-02-08T09:48:14Z</time>
      </trkpt>
      <trkpt lat="43.88958" lon="5.12034">
        <ele>202.49</ele>
        <time>2016-02-08T09:48:27Z</time>
      </trkpt>
      <trkpt lat="43.88958" lon="5.12034">
        <ele>202.49</ele>
        <time>2016-02-08T09:48:45Z</time>
      </trkpt>
      <trkpt lat="43.88957" lon="5.12033">
        <ele>202.01</ele>
        <time>2016-02-08T09:49:06Z</time>
      </trkpt>
      <trkpt lat="43.88957" lon="5.12032">
        <ele>202.49</ele>
        <time>2016-02-08T09:49:37Z</time>
      </trkpt>
      <trkpt lat="43.88956" lon="5.12032">
        <ele>202.49</ele>
        <time>2016-02-08T09:50:03Z</time>
      </trkpt>
      <trkpt lat="43.88957" lon="5.1203">
        <ele>202.49</ele>
        <time>2016-02-08T09:50:31Z</time>
      </trkpt>
      <trkpt lat="43.88958" lon="5.1203">
        <ele>202.49</ele>
        <time>2016-02-08T09:51:01Z</time>
      </trkpt>
      <trkpt lat="43.8895" lon="5.12032">
        <ele>202.49</ele>
        <time>2016-02-08T09:51:21Z</time>
      </trkpt>
      <trkpt lat="43.88939" lon="5.12027">
        <ele>202.49</ele>
        <time>2016-02-08T09:51:35Z</time>
      </trkpt>
      <trkpt lat="43.88929" lon="5.12018">
        <ele>203.46</ele>
        <time>2016-02-08T09:51:48Z</time>
      </trkpt>
      <trkpt lat="43.88918" lon="5.1201">
        <ele>202.49</ele>
        <time>2016-02-08T09:52:04Z</time>
      </trkpt>
      <trkpt lat="43.88911" lon="5.12003">
        <ele>201.53</ele>
        <time>2016-02-08T09:52:18Z</time>
      </trkpt>
      <trkpt lat="43.88901" lon="5.11992">
        <ele>200.57</ele>
        <time>2016-02-08T09:52:33Z</time>
      </trkpt>
      <trkpt lat="43.88888" lon="5.11987">
        <ele>199.61</ele>
        <time>2016-02-08T09:52:47Z</time>
      </trkpt>
      <trkpt lat="43.88875" lon="5.11987">
        <ele>199.13</ele>
        <time>2016-02-08T09:53:02Z</time>
      </trkpt>
      <trkpt lat="43.88862" lon="5.11989">
        <ele>198.65</ele>
        <time>2016-02-08T09:53:19Z</time>
      </trkpt>
      <trkpt lat="43.88849" lon="5.11989">
        <ele>198.65</ele>
        <time>2016-02-08T09:53:34Z</time>
      </trkpt>
      <trkpt lat="43.88842" lon="5.11992">
        <ele>198.17</ele>
        <time>2016-02-08T09:53:45Z</time>
      </trkpt>
      <trkpt lat="43.88836" lon="5.1199">
        <ele>198.65</ele>
        <time>2016-02-08T09:54:01Z</time>
      </trkpt>
      <trkpt lat="43.88831" lon="5.11994">
        <ele>199.61</ele>
        <time>2016-02-08T09:54:17Z</time>
      </trkpt>
      <trkpt lat="43.8883" lon="5.11995">
        <ele>199.61</ele>
        <time>2016-02-08T09:54:18Z</time>
      </trkpt>
      <trkpt lat="43.88818" lon="5.11989">
        <ele>199.61</ele>
        <time>2016-02-08T09:54:33Z</time>
      </trkpt>
      <trkpt lat="43.88808" lon="5.11974">
        <ele>200.09</ele>
        <time>2016-02-08T09:54:47Z</time>
      </trkpt>
      <trkpt lat="43.88804" lon="5.11975">
        <ele>200.09</ele>
        <time>2016-02-08T09:55:01Z</time>
      </trkpt>
      <trkpt lat="43.88798" lon="5.11983">
        <ele>201.53</ele>
        <time>2016-02-08T09:55:15Z</time>
      </trkpt>
      <trkpt lat="43.88787" lon="5.11978">
        <ele>201.53</ele>
        <time>2016-02-08T09:55:28Z</time>
      </trkpt>
      <trkpt lat="43.88787" lon="5.11968">
        <ele>199.13</ele>
        <time>2016-02-08T09:55:47Z</time>
      </trkpt>
      <trkpt lat="43.88787" lon="5.11967">
        <ele>199.13</ele>
        <time>2016-02-08T09:55:48Z</time>
      </trkpt>
      <trkpt lat="43.88783" lon="5.11962">
        <ele>198.65</ele>
        <time>2016-02-08T09:55:55Z</time>
      </trkpt>
      <trkpt lat="43.88773" lon="5.11958">
        <ele>196.73</ele>
        <time>2016-02-08T09:56:15Z</time>
      </trkpt>
      <trkpt lat="43.88764" lon="5.11954">
        <ele>195.28</ele>
        <time>2016-02-08T09:56:38Z</time>
      </trkpt>
      <trkpt lat="43.88763" lon="5.11951">
        <ele>193.36</ele>
        <time>2016-02-08T09:56:58Z</time>
      </trkpt>
      <trkpt lat="43.88759" lon="5.11944">
        <ele>190.48</ele>
        <time>2016-02-08T09:57:19Z</time>
      </trkpt>
      <trkpt lat="43.88752" lon="5.11936">
        <ele>188.56</ele>
        <time>2016-02-08T09:57:38Z</time>
      </trkpt>
      <trkpt lat="43.88738" lon="5.11938">
        <ele>187.11</ele>
        <time>2016-02-08T09:58:00Z</time>
      </trkpt>
      <trkpt lat="43.88723" lon="5.11921">
        <ele>183.75</ele>
        <time>2016-02-08T09:58:23Z</time>
      </trkpt>
      <trkpt lat="43.88709" lon="5.11906">
        <ele>181.35</ele>
        <time>2016-02-08T09:58:49Z</time>
      </trkpt>
      <trkpt lat="43.88701" lon="5.11898">
        <ele>180.38</ele>
        <time>2016-02-08T09:59:09Z</time>
      </trkpt>
      <trkpt lat="43.88701" lon="5.11901">
        <ele>180.38</ele>
        <time>2016-02-08T09:59:28Z</time>
      </trkpt>
      <trkpt lat="43.88701" lon="5.11901">
        <ele>179.9</ele>
        <time>2016-02-08T09:59:51Z</time>
      </trkpt>
      <trkpt lat="43.88702" lon="5.11901">
        <ele>179.9</ele>
        <time>2016-02-08T10:00:19Z</time>
      </trkpt>
      <trkpt lat="43.88703" lon="5.11903">
        <ele>179.9</ele>
        <time>2016-02-08T10:00:49Z</time>
      </trkpt>
      <trkpt lat="43.88703" lon="5.11902">
        <ele>179.42</ele>
        <time>2016-02-08T10:01:23Z</time>
      </trkpt>
      <trkpt lat="43.88698" lon="5.11915">
        <ele>179.42</ele>
        <time>2016-02-08T10:01:43Z</time>
      </trkpt>
      <trkpt lat="43.88685" lon="5.11931">
        <ele>179.42</ele>
        <time>2016-02-08T10:02:05Z</time>
      </trkpt>
      <trkpt lat="43.88677" lon="5.11958">
        <ele>179.42</ele>
        <time>2016-02-08T10:02:27Z</time>
      </trkpt>
      <trkpt lat="43.88672" lon="5.1198">
        <ele>179.42</ele>
        <time>2016-02-08T10:02:47Z</time>
      </trkpt>
      <trkpt lat="43.88663" lon="5.12014">
        <ele>180.38</ele>
        <time>2016-02-08T10:03:11Z</time>
      </trkpt>
      <trkpt lat="43.88656" lon="5.12041">
        <ele>181.35</ele>
        <time>2016-02-08T10:03:35Z</time>
      </trkpt>
      <trkpt lat="43.88653" lon="5.12068">
        <ele>182.79</ele>
        <time>2016-02-08T10:03:57Z</time>
      </trkpt>
      <trkpt lat="43.88649" lon="5.12091">
        <ele>183.75</ele>
        <time>2016-02-08T10:04:18Z</time>
      </trkpt>
      <trkpt lat="43.88648" lon="5.12113">
        <ele>184.71</ele>
        <time>2016-02-08T10:04:37Z</time>
      </trkpt>
      <trkpt lat="43.88647" lon="5.12138">
        <ele>185.67</ele>
        <time>2016-02-08T10:04:59Z</time>
      </trkpt>
      <trkpt lat="43.88644" lon="5.12173">
        <ele>186.15</ele>
        <time>2016-02-08T10:05:26Z</time>
      </trkpt>
      <trkpt lat="43.88636" lon="5.12209">
        <ele>187.11</ele>
        <time>2016-02-08T10:05:43Z</time>
      </trkpt>
      <trkpt lat="43.88632" lon="5.12219">
        <ele>187.11</ele>
        <time>2016-02-08T10:05:49Z</time>
      </trkpt>
      <trkpt lat="43.8864" lon="5.12238">
        <ele>187.11</ele>
        <time>2016-02-08T10:06:07Z</time>
      </trkpt>
      <trkpt lat="43.88655" lon="5.12258">
        <ele>187.11</ele>
        <time>2016-02-08T10:06:26Z</time>
      </trkpt>
      <trkpt lat="43.88668" lon="5.12273">
        <ele>187.11</ele>
        <time>2016-02-08T10:06:43Z</time>
      </trkpt>
      <trkpt lat="43.88682" lon="5.12289">
        <ele>187.11</ele>
        <time>2016-02-08T10:07:04Z</time>
      </trkpt>
      <trkpt lat="43.88695" lon="5.12303">
        <ele>187.11</ele>
        <time>2016-02-08T10:07:16Z</time>
      </trkpt>
      <trkpt lat="43.88711" lon="5.12323">
        <ele>188.56</ele>
        <time>2016-02-08T10:07:37Z</time>
      </trkpt>
      <trkpt lat="43.88725" lon="5.12347">
        <ele>188.56</ele>
        <time>2016-02-08T10:07:59Z</time>
      </trkpt>
      <trkpt lat="43.88735" lon="5.1237">
        <ele>189.04</ele>
        <time>2016-02-08T10:08:18Z</time>
      </trkpt>
      <trkpt lat="43.88744" lon="5.12392">
        <ele>190</ele>
        <time>2016-02-08T10:08:39Z</time>
      </trkpt>
      <trkpt lat="43.88751" lon="5.12421">
        <ele>190.96</ele>
        <time>2016-02-08T10:09:01Z</time>
      </trkpt>
      <trkpt lat="43.88757" lon="5.12451">
        <ele>191.44</ele>
        <time>2016-02-08T10:09:24Z</time>
      </trkpt>
      <trkpt lat="43.8877" lon="5.12486">
        <ele>192.4</ele>
        <time>2016-02-08T10:09:47Z</time>
      </trkpt>
      <trkpt lat="43.88786" lon="5.12499">
        <ele>192.88</ele>
        <time>2016-02-08T10:10:07Z</time>
      </trkpt>
      <trkpt lat="43.88805" lon="5.12516">
        <ele>193.36</ele>
        <time>2016-02-08T10:10:30Z</time>
      </trkpt>
      <trkpt lat="43.88819" lon="5.12541">
        <ele>193.84</ele>
        <time>2016-02-08T10:10:51Z</time>
      </trkpt>
      <trkpt lat="43.88833" lon="5.12568">
        <ele>193.84</ele>
        <time>2016-02-08T10:11:13Z</time>
      </trkpt>
      <trkpt lat="43.88847" lon="5.12591">
        <ele>193.84</ele>
        <time>2016-02-08T10:11:33Z</time>
      </trkpt>
      <trkpt lat="43.88859" lon="5.12613">
        <ele>194.32</ele>
        <time>2016-02-08T10:11:52Z</time>
      </trkpt>
      <trkpt lat="43.88866" lon="5.12626">
        <ele>194.8</ele>
        <time>2016-02-08T10:12:03Z</time>
      </trkpt>
      <trkpt lat="43.88878" lon="5.12652">
        <ele>195.77</ele>
        <time>2016-02-08T10:12:24Z</time>
      </trkpt>
      <trkpt lat="43.88888" lon="5.12676">
        <ele>195.77</ele>
        <time>2016-02-08T10:12:44Z</time>
      </trkpt>
      <trkpt lat="43.88899" lon="5.12701">
        <ele>195.77</ele>
        <time>2016-02-08T10:13:06Z</time>
      </trkpt>
      <trkpt lat="43.889" lon="5.12716">
        <ele>196.25</ele>
        <time>2016-02-08T10:13:22Z</time>
      </trkpt>
      <trkpt lat="43.88909" lon="5.12745">
        <ele>196.25</ele>
        <time>2016-02-08T10:13:45Z</time>
      </trkpt>
      <trkpt lat="43.88912" lon="5.12772">
        <ele>196.25</ele>
        <time>2016-02-08T10:14:05Z</time>
      </trkpt>
      <trkpt lat="43.88919" lon="5.12799">
        <ele>196.25</ele>
        <time>2016-02-08T10:14:28Z</time>
      </trkpt>
      <trkpt lat="43.88924" lon="5.12817">
        <ele>196.73</ele>
        <time>2016-02-08T10:14:41Z</time>
      </trkpt>
      <trkpt lat="43.88933" lon="5.1285">
        <ele>197.69</ele>
        <time>2016-02-08T10:15:06Z</time>
      </trkpt>
      <trkpt lat="43.88941" lon="5.1287">
        <ele>199.13</ele>
        <time>2016-02-08T10:15:23Z</time>
      </trkpt>
      <trkpt lat="43.8895" lon="5.12879">
        <ele>198.65</ele>
        <time>2016-02-08T10:15:37Z</time>
      </trkpt>
      <trkpt lat="43.88955" lon="5.12887">
        <ele>200.57</ele>
        <time>2016-02-08T10:15:45Z</time>
      </trkpt>
      <trkpt lat="43.88966" lon="5.12915">
        <ele>200.57</ele>
        <time>2016-02-08T10:16:07Z</time>
      </trkpt>
      <trkpt lat="43.88975" lon="5.12939">
        <ele>200.57</ele>
        <time>2016-02-08T10:16:25Z</time>
      </trkpt>
      <trkpt lat="43.88982" lon="5.12965">
        <ele>202.01</ele>
        <time>2016-02-08T10:16:44Z</time>
      </trkpt>
      <trkpt lat="43.88989" lon="5.12997">
        <ele>202.49</ele>
        <time>2016-02-08T10:17:05Z</time>
      </trkpt>
      <trkpt lat="43.88992" lon="5.13006">
        <ele>202.98</ele>
        <time>2016-02-08T10:17:21Z</time>
      </trkpt>
      <trkpt lat="43.88996" lon="5.13029">
        <ele>202.98</ele>
        <time>2016-02-08T10:17:40Z</time>
      </trkpt>
      <trkpt lat="43.89" lon="5.13059">
        <ele>203.94</ele>
        <time>2016-02-08T10:18:02Z</time>
      </trkpt>
      <trkpt lat="43.89001" lon="5.13094">
        <ele>204.42</ele>
        <time>2016-02-08T10:18:25Z</time>
      </trkpt>
      <trkpt lat="43.89004" lon="5.13126">
        <ele>205.38</ele>
        <time>2016-02-08T10:18:47Z</time>
      </trkpt>
      <trkpt lat="43.89002" lon="5.13149">
        <ele>206.82</ele>
        <time>2016-02-08T10:19:04Z</time>
      </trkpt>
      <trkpt lat="43.89002" lon="5.13172">
        <ele>207.3</ele>
        <time>2016-02-08T10:19:22Z</time>
      </trkpt>
      <trkpt lat="43.89003" lon="5.13197">
        <ele>208.26</ele>
        <time>2016-02-08T10:19:41Z</time>
      </trkpt>
      <trkpt lat="43.89006" lon="5.1322">
        <ele>210.19</ele>
        <time>2016-02-08T10:19:55Z</time>
      </trkpt>
      <trkpt lat="43.89014" lon="5.13234">
        <ele>211.15</ele>
        <time>2016-02-08T10:20:12Z</time>
      </trkpt>
      <trkpt lat="43.89015" lon="5.13235">
        <ele>211.15</ele>
        <time>2016-02-08T10:20:30Z</time>
      </trkpt>
      <trkpt lat="43.89022" lon="5.13237">
        <ele>211.15</ele>
        <time>2016-02-08T10:20:44Z</time>
      </trkpt>
      <trkpt lat="43.89027" lon="5.13233">
        <ele>211.15</ele>
        <time>2016-02-08T10:20:52Z</time>
      </trkpt>
      <trkpt lat="43.8904" lon="5.13226">
        <ele>211.63</ele>
        <time>2016-02-08T10:21:06Z</time>
      </trkpt>
      <trkpt lat="43.89054" lon="5.1321">
        <ele>211.63</ele>
        <time>2016-02-08T10:21:24Z</time>
      </trkpt>
      <trkpt lat="43.89068" lon="5.13191">
        <ele>212.11</ele>
        <time>2016-02-08T10:21:41Z</time>
      </trkpt>
      <trkpt lat="43.89082" lon="5.1318">
        <ele>212.11</ele>
        <time>2016-02-08T10:21:57Z</time>
      </trkpt>
      <trkpt lat="43.89097" lon="5.13169">
        <ele>212.59</ele>
        <time>2016-02-08T10:22:12Z</time>
      </trkpt>
      <trkpt lat="43.89109" lon="5.13158">
        <ele>212.59</ele>
        <time>2016-02-08T10:22:27Z</time>
      </trkpt>
      <trkpt lat="43.89121" lon="5.1315">
        <ele>213.07</ele>
        <time>2016-02-08T10:22:41Z</time>
      </trkpt>
      <trkpt lat="43.89137" lon="5.13143">
        <ele>214.03</ele>
        <time>2016-02-08T10:22:57Z</time>
      </trkpt>
      <trkpt lat="43.89149" lon="5.13134">
        <ele>214.99</ele>
        <time>2016-02-08T10:23:11Z</time>
      </trkpt>
      <trkpt lat="43.89163" lon="5.13123">
        <ele>216.43</ele>
        <time>2016-02-08T10:23:28Z</time>
      </trkpt>
      <trkpt lat="43.89177" lon="5.13116">
        <ele>218.36</ele>
        <time>2016-02-08T10:23:44Z</time>
      </trkpt>
      <trkpt lat="43.89188" lon="5.13114">
        <ele>219.32</ele>
        <time>2016-02-08T10:23:57Z</time>
      </trkpt>
      <trkpt lat="43.89189" lon="5.13117">
        <ele>219.32</ele>
        <time>2016-02-08T10:24:00Z</time>
      </trkpt>
      <trkpt lat="43.8919" lon="5.13129">
        <ele>219.8</ele>
        <time>2016-02-08T10:24:09Z</time>
      </trkpt>
      <trkpt lat="43.89191" lon="5.13136">
        <ele>219.8</ele>
        <time>2016-02-08T10:24:14Z</time>
      </trkpt>
      <trkpt lat="43.89191" lon="5.13162">
        <ele>220.28</ele>
        <time>2016-02-08T10:24:32Z</time>
      </trkpt>
      <trkpt lat="43.89191" lon="5.13182">
        <ele>220.76</ele>
        <time>2016-02-08T10:24:46Z</time>
      </trkpt>
      <trkpt lat="43.89196" lon="5.13201">
        <ele>221.72</ele>
        <time>2016-02-08T10:25:03Z</time>
      </trkpt>
      <trkpt lat="43.89201" lon="5.1322">
        <ele>222.68</ele>
        <time>2016-02-08T10:25:18Z</time>
      </trkpt>
      <trkpt lat="43.89206" lon="5.13241">
        <ele>222.68</ele>
        <time>2016-02-08T10:25:35Z</time>
      </trkpt>
      <trkpt lat="43.89208" lon="5.13247">
        <ele>223.16</ele>
        <time>2016-02-08T10:25:39Z</time>
      </trkpt>
      <trkpt lat="43.89213" lon="5.13271">
        <ele>223.64</ele>
        <time>2016-02-08T10:25:58Z</time>
      </trkpt>
      <trkpt lat="43.89216" lon="5.13279">
        <ele>224.12</ele>
        <time>2016-02-08T10:26:17Z</time>
      </trkpt>
      <trkpt lat="43.89218" lon="5.13283">
        <ele>225.09</ele>
        <time>2016-02-08T10:26:27Z</time>
      </trkpt>
      <trkpt lat="43.89218" lon="5.13282">
        <ele>225.09</ele>
        <time>2016-02-08T10:26:51Z</time>
      </trkpt>
      <trkpt lat="43.89219" lon="5.13278">
        <ele>225.09</ele>
        <time>2016-02-08T10:27:26Z</time>
      </trkpt>
      <trkpt lat="43.8922" lon="5.1328">
        <ele>224.61</ele>
        <time>2016-02-08T10:28:01Z</time>
      </trkpt>
      <trkpt lat="43.89225" lon="5.13283">
        <ele>224.61</ele>
        <time>2016-02-08T10:28:24Z</time>
      </trkpt>
      <trkpt lat="43.89224" lon="5.1328">
        <ele>224.61</ele>
        <time>2016-02-08T10:28:50Z</time>
      </trkpt>
      <trkpt lat="43.89229" lon="5.13281">
        <ele>225.09</ele>
        <time>2016-02-08T10:29:15Z</time>
      </trkpt>
      <trkpt lat="43.89235" lon="5.13304">
        <ele>224.61</ele>
        <time>2016-02-08T10:29:36Z</time>
      </trkpt>
      <trkpt lat="43.89248" lon="5.13322">
        <ele>224.61</ele>
        <time>2016-02-08T10:29:53Z</time>
      </trkpt>
      <trkpt lat="43.89261" lon="5.13332">
        <ele>224.61</ele>
        <time>2016-02-08T10:30:08Z</time>
      </trkpt>
      <trkpt lat="43.89273" lon="5.13334">
        <ele>226.05</ele>
        <time>2016-02-08T10:30:21Z</time>
      </trkpt>
      <trkpt lat="43.89282" lon="5.13335">
        <ele>227.01</ele>
        <time>2016-02-08T10:30:29Z</time>
      </trkpt>
      <trkpt lat="43.89301" lon="5.13335">
        <ele>227.97</ele>
        <time>2016-02-08T10:30:51Z</time>
      </trkpt>
      <trkpt lat="43.89328" lon="5.1333">
        <ele>229.89</ele>
        <time>2016-02-08T10:31:17Z</time>
      </trkpt>
      <trkpt lat="43.89354" lon="5.13337">
        <ele>231.33</ele>
        <time>2016-02-08T10:31:41Z</time>
      </trkpt>
      <trkpt lat="43.89371" lon="5.13351">
        <ele>232.78</ele>
        <time>2016-02-08T10:32:01Z</time>
      </trkpt>
      <trkpt lat="43.89384" lon="5.13372">
        <ele>235.18</ele>
        <time>2016-02-08T10:32:23Z</time>
      </trkpt>
      <trkpt lat="43.89404" lon="5.13392">
        <ele>236.14</ele>
        <time>2016-02-08T10:32:47Z</time>
      </trkpt>
      <trkpt lat="43.89424" lon="5.13417">
        <ele>238.06</ele>
        <time>2016-02-08T10:33:12Z</time>
      </trkpt>
      <trkpt lat="43.8944" lon="5.13442">
        <ele>239.51</ele>
        <time>2016-02-08T10:33:34Z</time>
      </trkpt>
      <trkpt lat="43.89446" lon="5.13449">
        <ele>239.51</ele>
        <time>2016-02-08T10:33:55Z</time>
      </trkpt>
      <trkpt lat="43.89446" lon="5.13451">
        <ele>239.51</ele>
        <time>2016-02-08T10:34:21Z</time>
      </trkpt>
      <trkpt lat="43.89451" lon="5.13466">
        <ele>239.99</ele>
        <time>2016-02-08T10:34:39Z</time>
      </trkpt>
      <trkpt lat="43.89451" lon="5.13483">
        <ele>239.99</ele>
        <time>2016-02-08T10:34:59Z</time>
      </trkpt>
      <trkpt lat="43.89454" lon="5.13502">
        <ele>239.99</ele>
        <time>2016-02-08T10:35:22Z</time>
      </trkpt>
      <trkpt lat="43.89459" lon="5.13529">
        <ele>237.1</ele>
        <time>2016-02-08T10:35:46Z</time>
      </trkpt>
      <trkpt lat="43.89456" lon="5.13556">
        <ele>235.18</ele>
        <time>2016-02-08T10:36:07Z</time>
      </trkpt>
      <trkpt lat="43.89459" lon="5.13582">
        <ele>233.26</ele>
        <time>2016-02-08T10:36:34Z</time>
      </trkpt>
      <trkpt lat="43.89466" lon="5.1361">
        <ele>230.85</ele>
        <time>2016-02-08T10:36:58Z</time>
      </trkpt>
      <trkpt lat="43.89466" lon="5.13629">
        <ele>228.93</ele>
        <time>2016-02-08T10:37:22Z</time>
      </trkpt>
      <trkpt lat="43.89461" lon="5.13653">
        <ele>226.53</ele>
        <time>2016-02-08T10:37:47Z</time>
      </trkpt>
      <trkpt lat="43.89457" lon="5.13674">
        <ele>224.61</ele>
        <time>2016-02-08T10:38:12Z</time>
      </trkpt>
      <trkpt lat="43.89449" lon="5.13698">
        <ele>221.72</ele>
        <time>2016-02-08T10:38:36Z</time>
      </trkpt>
      <trkpt lat="43.89447" lon="5.13711">
        <ele>219.32</ele>
        <time>2016-02-08T10:38:58Z</time>
      </trkpt>
      <trkpt lat="43.89437" lon="5.13729">
        <ele>216.91</ele>
        <time>2016-02-08T10:39:21Z</time>
      </trkpt>
      <trkpt lat="43.89431" lon="5.13744">
        <ele>215.95</ele>
        <time>2016-02-08T10:39:44Z</time>
      </trkpt>
      <trkpt lat="43.89422" lon="5.13756">
        <ele>213.55</ele>
        <time>2016-02-08T10:40:08Z</time>
      </trkpt>
      <trkpt lat="43.89409" lon="5.13772">
        <ele>212.11</ele>
        <time>2016-02-08T10:40:31Z</time>
      </trkpt>
      <trkpt lat="43.89393" lon="5.1379">
        <ele>210.67</ele>
        <time>2016-02-08T10:40:54Z</time>
      </trkpt>
      <trkpt lat="43.89374" lon="5.13816">
        <ele>209.22</ele>
        <time>2016-02-08T10:41:19Z</time>
      </trkpt>
      <trkpt lat="43.8937" lon="5.13831">
        <ele>207.78</ele>
        <time>2016-02-08T10:41:41Z</time>
      </trkpt>
      <trkpt lat="43.8937" lon="5.13837">
        <ele>207.78</ele>
        <time>2016-02-08T10:42:04Z</time>
      </trkpt>
      <trkpt lat="43.89371" lon="5.1384">
        <ele>207.78</ele>
        <time>2016-02-08T10:42:38Z</time>
      </trkpt>
      <trkpt lat="43.89373" lon="5.13841">
        <ele>208.74</ele>
        <time>2016-02-08T10:43:04Z</time>
      </trkpt>
      <trkpt lat="43.89387" lon="5.13848">
        <ele>212.11</ele>
        <time>2016-02-08T10:43:27Z</time>
      </trkpt>
      <trkpt lat="43.89399" lon="5.13855">
        <ele>214.51</ele>
        <time>2016-02-08T10:43:49Z</time>
      </trkpt>
      <trkpt lat="43.89414" lon="5.13865">
        <ele>217.4</ele>
        <time>2016-02-08T10:44:11Z</time>
      </trkpt>
      <trkpt lat="43.89431" lon="5.13873">
        <ele>219.8</ele>
        <time>2016-02-08T10:44:32Z</time>
      </trkpt>
      <trkpt lat="43.89449" lon="5.13885">
        <ele>222.68</ele>
        <time>2016-02-08T10:44:57Z</time>
      </trkpt>
      <trkpt lat="43.89467" lon="5.13896">
        <ele>223.64</ele>
        <time>2016-02-08T10:45:22Z</time>
      </trkpt>
      <trkpt lat="43.89486" lon="5.1391">
        <ele>222.2</ele>
        <time>2016-02-08T10:45:49Z</time>
      </trkpt>
      <trkpt lat="43.89506" lon="5.13923">
        <ele>223.16</ele>
        <time>2016-02-08T10:46:13Z</time>
      </trkpt>
      <trkpt lat="43.89518" lon="5.13933">
        <ele>226.53</ele>
        <time>2016-02-08T10:46:35Z</time>
      </trkpt>
      <trkpt lat="43.89524" lon="5.13935">
        <ele>227.49</ele>
        <time>2016-02-08T10:46:55Z</time>
      </trkpt>
      <trkpt lat="43.89538" lon="5.13945">
        <ele>230.85</ele>
        <time>2016-02-08T10:47:17Z</time>
      </trkpt>
      <trkpt lat="43.89544" lon="5.13949">
        <ele>231.81</ele>
        <time>2016-02-08T10:47:38Z</time>
      </trkpt>
      <trkpt lat="43.89554" lon="5.13959">
        <ele>233.74</ele>
        <time>2016-02-08T10:48:01Z</time>
      </trkpt>
      <trkpt lat="43.89572" lon="5.1397">
        <ele>236.14</ele>
        <time>2016-02-08T10:48:27Z</time>
      </trkpt>
      <trkpt lat="43.89579" lon="5.13974">
        <ele>237.1</ele>
        <time>2016-02-08T10:48:48Z</time>
      </trkpt>
      <trkpt lat="43.89579" lon="5.13974">
        <ele>237.1</ele>
        <time>2016-02-08T10:49:09Z</time>
      </trkpt>
      <trkpt lat="43.8958" lon="5.13978">
        <ele>237.1</ele>
        <time>2016-02-08T10:49:28Z</time>
      </trkpt>
      <trkpt lat="43.89581" lon="5.13975">
        <ele>237.1</ele>
        <time>2016-02-08T10:49:55Z</time>
      </trkpt>
      <trkpt lat="43.8958" lon="5.13977">
        <ele>237.1</ele>
        <time>2016-02-08T10:50:21Z</time>
      </trkpt>
      <trkpt lat="43.89585" lon="5.13971">
        <ele>238.06</ele>
        <time>2016-02-08T10:50:49Z</time>
      </trkpt>
      <trkpt lat="43.89585" lon="5.13971">
        <ele>238.06</ele>
        <time>2016-02-08T10:51:08Z</time>
      </trkpt>
      <trkpt lat="43.89583" lon="5.13971">
        <ele>238.06</ele>
        <time>2016-02-08T10:51:37Z</time>
      </trkpt>
      <trkpt lat="43.89582" lon="5.13973">
        <ele>238.06</ele>
        <time>2016-02-08T10:52:15Z</time>
      </trkpt>
      <trkpt lat="43.89582" lon="5.13973">
        <ele>238.54</ele>
        <time>2016-02-08T10:52:52Z</time>
      </trkpt>
      <trkpt lat="43.89584" lon="5.13977">
        <ele>238.54</ele>
        <time>2016-02-08T10:53:17Z</time>
      </trkpt>
      <trkpt lat="43.89591" lon="5.13974">
        <ele>239.02</ele>
        <time>2016-02-08T10:53:47Z</time>
      </trkpt>
      <trkpt lat="43.89608" lon="5.13962">
        <ele>240.47</ele>
        <time>2016-02-08T10:54:13Z</time>
      </trkpt>
      <trkpt lat="43.89624" lon="5.13957">
        <ele>241.43</ele>
        <time>2016-02-08T10:54:34Z</time>
      </trkpt>
      <trkpt lat="43.89627" lon="5.13956">
        <ele>241.43</ele>
        <time>2016-02-08T10:54:53Z</time>
      </trkpt>
      <trkpt lat="43.89629" lon="5.13955">
        <ele>240.47</ele>
        <time>2016-02-08T10:55:04Z</time>
      </trkpt>
      <trkpt lat="43.89631" lon="5.13954">
        <ele>240.47</ele>
        <time>2016-02-08T10:55:30Z</time>
      </trkpt>
      <trkpt lat="43.89631" lon="5.13955">
        <ele>240.95</ele>
        <time>2016-02-08T10:55:40Z</time>
      </trkpt>
      <trkpt lat="43.8963" lon="5.13956">
        <ele>240.95</ele>
        <time>2016-02-08T10:56:00Z</time>
      </trkpt>
      <trkpt lat="43.89628" lon="5.13954">
        <ele>240.95</ele>
        <time>2016-02-08T10:56:18Z</time>
      </trkpt>
      <trkpt lat="43.89628" lon="5.1395">
        <ele>240.95</ele>
        <time>2016-02-08T10:56:54Z</time>
      </trkpt>
      <trkpt lat="43.89628" lon="5.13952">
        <ele>240.95</ele>
        <time>2016-02-08T10:57:21Z</time>
      </trkpt>
      <trkpt lat="43.89628" lon="5.13952">
        <ele>240.95</ele>
        <time>2016-02-08T10:57:37Z</time>
      </trkpt>
      <trkpt lat="43.89629" lon="5.13953">
        <ele>241.91</ele>
        <time>2016-02-08T10:57:53Z</time>
      </trkpt>
      <trkpt lat="43.89628" lon="5.13952">
        <ele>241.91</ele>
        <time>2016-02-08T10:58:12Z</time>
      </trkpt>
      <trkpt lat="43.8963" lon="5.13952">
        <ele>242.39</ele>
        <time>2016-02-08T10:58:33Z</time>
      </trkpt>
      <trkpt lat="43.89638" lon="5.13948">
        <ele>242.87</ele>
        <time>2016-02-08T10:58:49Z</time>
      </trkpt>
      <trkpt lat="43.89649" lon="5.13944">
        <ele>243.83</ele>
        <time>2016-02-08T10:59:06Z</time>
      </trkpt>
      <trkpt lat="43.89663" lon="5.13937">
        <ele>245.27</ele>
        <time>2016-02-08T10:59:25Z</time>
      </trkpt>
      <trkpt lat="43.89675" lon="5.13932">
        <ele>246.23</ele>
        <time>2016-02-08T10:59:42Z</time>
      </trkpt>
      <trkpt lat="43.89689" lon="5.13927">
        <ele>247.68</ele>
        <time>2016-02-08T10:59:59Z</time>
      </trkpt>
      <trkpt lat="43.89702" lon="5.1392">
        <ele>248.64</ele>
        <time>2016-02-08T11:00:18Z</time>
      </trkpt>
      <trkpt lat="43.89721" lon="5.1391">
        <ele>250.08</ele>
        <time>2016-02-08T11:00:38Z</time>
      </trkpt>
      <trkpt lat="43.89735" lon="5.13906">
        <ele>250.56</ele>
        <time>2016-02-08T11:00:57Z</time>
      </trkpt>
      <trkpt lat="43.89751" lon="5.13895">
        <ele>251.52</ele>
        <time>2016-02-08T11:01:14Z</time>
      </trkpt>
      <trkpt lat="43.89764" lon="5.13891">
        <ele>252.48</ele>
        <time>2016-02-08T11:01:32Z</time>
      </trkpt>
      <trkpt lat="43.89779" lon="5.13886">
        <ele>253.93</ele>
        <time>2016-02-08T11:01:50Z</time>
      </trkpt>
      <trkpt lat="43.8979" lon="5.13883">
        <ele>254.41</ele>
        <time>2016-02-08T11:02:06Z</time>
      </trkpt>
      <trkpt lat="43.89805" lon="5.13882">
        <ele>254.41</ele>
        <time>2016-02-08T11:02:23Z</time>
      </trkpt>
      <trkpt lat="43.8982" lon="5.13883">
        <ele>254.89</ele>
        <time>2016-02-08T11:02:40Z</time>
      </trkpt>
      <trkpt lat="43.89838" lon="5.13885">
        <ele>255.85</ele>
        <time>2016-02-08T11:02:59Z</time>
      </trkpt>
      <trkpt lat="43.8985" lon="5.13885">
        <ele>257.77</ele>
        <time>2016-02-08T11:03:18Z</time>
      </trkpt>
      <trkpt lat="43.89862" lon="5.13886">
        <ele>260.17</ele>
        <time>2016-02-08T11:03:36Z</time>
      </trkpt>
      <trkpt lat="43.89873" lon="5.13888">
        <ele>262.1</ele>
        <time>2016-02-08T11:03:55Z</time>
      </trkpt>
      <trkpt lat="43.89885" lon="5.1389">
        <ele>263.54</ele>
        <time>2016-02-08T11:04:13Z</time>
      </trkpt>
      <trkpt lat="43.899" lon="5.13891">
        <ele>264.98</ele>
        <time>2016-02-08T11:04:30Z</time>
      </trkpt>
      <trkpt lat="43.89912" lon="5.13891">
        <ele>266.9</ele>
        <time>2016-02-08T11:04:49Z</time>
      </trkpt>
      <trkpt lat="43.89925" lon="5.13893">
        <ele>268.83</ele>
        <time>2016-02-08T11:05:07Z</time>
      </trkpt>
      <trkpt lat="43.89936" lon="5.13895">
        <ele>270.75</ele>
        <time>2016-02-08T11:05:24Z</time>
      </trkpt>
      <trkpt lat="43.89951" lon="5.13896">
        <ele>272.67</ele>
        <time>2016-02-08T11:05:44Z</time>
      </trkpt>
      <trkpt lat="43.89965" lon="5.13897">
        <ele>274.59</ele>
        <time>2016-02-08T11:06:01Z</time>
      </trkpt>
      <trkpt lat="43.89977" lon="5.13898">
        <ele>276.52</ele>
        <time>2016-02-08T11:06:19Z</time>
      </trkpt>
      <trkpt lat="43.89987" lon="5.13898">
        <ele>278.44</ele>
        <time>2016-02-08T11:06:35Z</time>
      </trkpt>
      <trkpt lat="43.89997" lon="5.139">
        <ele>279.88</ele>
        <time>2016-02-08T11:06:53Z</time>
      </trkpt>
      <trkpt lat="43.90001" lon="5.13898">
        <ele>280.84</ele>
        <time>2016-02-08T11:07:18Z</time>
      </trkpt>
      <trkpt lat="43.90002" lon="5.13899">
        <ele>281.32</ele>
        <time>2016-02-08T11:07:38Z</time>
      </trkpt>
      <trkpt lat="43.90002" lon="5.13898">
        <ele>281.32</ele>
        <time>2016-02-08T11:07:59Z</time>
      </trkpt>
      <trkpt lat="43.90002" lon="5.13899">
        <ele>281.32</ele>
        <time>2016-02-08T11:08:35Z</time>
      </trkpt>
      <trkpt lat="43.90003" lon="5.13898">
        <ele>281.32</ele>
        <time>2016-02-08T11:09:06Z</time>
      </trkpt>
      <trkpt lat="43.90001" lon="5.13896">
        <ele>281.32</ele>
        <time>2016-02-08T11:09:39Z</time>
      </trkpt>
      <trkpt lat="43.90001" lon="5.13895">
        <ele>281.32</ele>
        <time>2016-02-08T11:10:16Z</time>
      </trkpt>
      <trkpt lat="43.9" lon="5.13897">
        <ele>281.32</ele>
        <time>2016-02-08T11:10:48Z</time>
      </trkpt>
      <trkpt lat="43.9" lon="5.13896">
        <ele>280.36</ele>
        <time>2016-02-08T11:11:23Z</time>
      </trkpt>
      <trkpt lat="43.90005" lon="5.13898">
        <ele>280.36</ele>
        <time>2016-02-08T11:11:49Z</time>
      </trkpt>
      <trkpt lat="43.90017" lon="5.13901">
        <ele>281.32</ele>
        <time>2016-02-08T11:12:10Z</time>
      </trkpt>
      <trkpt lat="43.90034" lon="5.13905">
        <ele>284.21</ele>
        <time>2016-02-08T11:12:37Z</time>
      </trkpt>
      <trkpt lat="43.90049" lon="5.13906">
        <ele>286.13</ele>
        <time>2016-02-08T11:13:00Z</time>
      </trkpt>
      <trkpt lat="43.90063" lon="5.13906">
        <ele>287.57</ele>
        <time>2016-02-08T11:13:19Z</time>
      </trkpt>
      <trkpt lat="43.90085" lon="5.13906">
        <ele>289.49</ele>
        <time>2016-02-08T11:13:41Z</time>
      </trkpt>
      <trkpt lat="43.90098" lon="5.13905">
        <ele>291.42</ele>
        <time>2016-02-08T11:14:02Z</time>
      </trkpt>
      <trkpt lat="43.90112" lon="5.13906">
        <ele>293.82</ele>
        <time>2016-02-08T11:14:26Z</time>
      </trkpt>
      <trkpt lat="43.90129" lon="5.13909">
        <ele>295.74</ele>
        <time>2016-02-08T11:14:50Z</time>
      </trkpt>
      <trkpt lat="43.90139" lon="5.13916">
        <ele>296.7</ele>
        <time>2016-02-08T11:15:09Z</time>
      </trkpt>
      <trkpt lat="43.90146" lon="5.13916">
        <ele>297.67</ele>
        <time>2016-02-08T11:15:30Z</time>
      </trkpt>
      <trkpt lat="43.90159" lon="5.13915">
        <ele>299.11</ele>
        <time>2016-02-08T11:15:48Z</time>
      </trkpt>
      <trkpt lat="43.90172" lon="5.13924">
        <ele>300.55</ele>
        <time>2016-02-08T11:16:07Z</time>
      </trkpt>
      <trkpt lat="43.90183" lon="5.1393">
        <ele>301.03</ele>
        <time>2016-02-08T11:16:25Z</time>
      </trkpt>
      <trkpt lat="43.90192" lon="5.13942">
        <ele>301.51</ele>
        <time>2016-02-08T11:16:42Z</time>
      </trkpt>
      <trkpt lat="43.90202" lon="5.13957">
        <ele>301.51</ele>
        <time>2016-02-08T11:17:00Z</time>
      </trkpt>
      <trkpt lat="43.90211" lon="5.13975">
        <ele>301.51</ele>
        <time>2016-02-08T11:17:16Z</time>
      </trkpt>
      <trkpt lat="43.90223" lon="5.13989">
        <ele>301.03</ele>
        <time>2016-02-08T11:17:34Z</time>
      </trkpt>
      <trkpt lat="43.90234" lon="5.14007">
        <ele>301.51</ele>
        <time>2016-02-08T11:17:49Z</time>
      </trkpt>
      <trkpt lat="43.90248" lon="5.14026">
        <ele>302.47</ele>
        <time>2016-02-08T11:18:09Z</time>
      </trkpt>
      <trkpt lat="43.9026" lon="5.14039">
        <ele>303.91</ele>
        <time>2016-02-08T11:18:29Z</time>
      </trkpt>
      <trkpt lat="43.90271" lon="5.14057">
        <ele>304.39</ele>
        <time>2016-02-08T11:18:46Z</time>
      </trkpt>
      <trkpt lat="43.90282" lon="5.14074">
        <ele>305.36</ele>
        <time>2016-02-08T11:19:03Z</time>
      </trkpt>
      <trkpt lat="43.90295" lon="5.1408">
        <ele>305.84</ele>
        <time>2016-02-08T11:19:20Z</time>
      </trkpt>
      <trkpt lat="43.90302" lon="5.1407">
        <ele>306.8</ele>
        <time>2016-02-08T11:19:36Z</time>
      </trkpt>
      <trkpt lat="43.90304" lon="5.14069">
        <ele>307.28</ele>
        <time>2016-02-08T11:19:53Z</time>
      </trkpt>
      <trkpt lat="43.90305" lon="5.14067">
        <ele>307.28</ele>
        <time>2016-02-08T11:20:09Z</time>
      </trkpt>
      <trkpt lat="43.90306" lon="5.14067">
        <ele>308.24</ele>
        <time>2016-02-08T11:20:37Z</time>
      </trkpt>
      <trkpt lat="43.90305" lon="5.14067">
        <ele>308.24</ele>
        <time>2016-02-08T11:21:03Z</time>
      </trkpt>
      <trkpt lat="43.90305" lon="5.14068">
        <ele>306.8</ele>
        <time>2016-02-08T11:21:18Z</time>
      </trkpt>
      <trkpt lat="43.90307" lon="5.14077">
        <ele>310.16</ele>
        <time>2016-02-08T12:03:04Z</time>
      </trkpt>
      <trkpt lat="43.90305" lon="5.14069">
        <ele>310.16</ele>
        <time>2016-02-08T12:03:29Z</time>
      </trkpt>
      <trkpt lat="43.90307" lon="5.14067">
        <ele>309.68</ele>
        <time>2016-02-08T12:03:55Z</time>
      </trkpt>
      <trkpt lat="43.90303" lon="5.14069">
        <ele>310.16</ele>
        <time>2016-02-08T12:04:15Z</time>
      </trkpt>
      <trkpt lat="43.90304" lon="5.14067">
        <ele>310.16</ele>
        <time>2016-02-08T12:04:42Z</time>
      </trkpt>
      <trkpt lat="43.90302" lon="5.14067">
        <ele>310.16</ele>
        <time>2016-02-08T12:05:08Z</time>
      </trkpt>
      <trkpt lat="43.90299" lon="5.14073">
        <ele>310.16</ele>
        <time>2016-02-08T12:05:31Z</time>
      </trkpt>
      <trkpt lat="43.90301" lon="5.14073">
        <ele>310.16</ele>
        <time>2016-02-08T12:05:56Z</time>
      </trkpt>
      <trkpt lat="43.90305" lon="5.14072">
        <ele>310.16</ele>
        <time>2016-02-08T12:06:21Z</time>
      </trkpt>
      <trkpt lat="43.90309" lon="5.1407">
        <ele>310.64</ele>
        <time>2016-02-08T12:06:40Z</time>
      </trkpt>
      <trkpt lat="43.90311" lon="5.14068">
        <ele>311.12</ele>
        <time>2016-02-08T12:07:03Z</time>
      </trkpt>
      <trkpt lat="43.90321" lon="5.14063">
        <ele>311.12</ele>
        <time>2016-02-08T12:07:21Z</time>
      </trkpt>
      <trkpt lat="43.90335" lon="5.14051">
        <ele>312.57</ele>
        <time>2016-02-08T12:07:41Z</time>
      </trkpt>
      <trkpt lat="43.90348" lon="5.14041">
        <ele>314.01</ele>
        <time>2016-02-08T12:07:58Z</time>
      </trkpt>
      <trkpt lat="43.90357" lon="5.14032">
        <ele>315.45</ele>
        <time>2016-02-08T12:08:16Z</time>
      </trkpt>
      <trkpt lat="43.90362" lon="5.14019">
        <ele>316.89</ele>
        <time>2016-02-08T12:08:33Z</time>
      </trkpt>
      <trkpt lat="43.90368" lon="5.14008">
        <ele>317.85</ele>
        <time>2016-02-08T12:08:49Z</time>
      </trkpt>
      <trkpt lat="43.90379" lon="5.13988">
        <ele>318.81</ele>
        <time>2016-02-08T12:09:11Z</time>
      </trkpt>
      <trkpt lat="43.90385" lon="5.13981">
        <ele>319.3</ele>
        <time>2016-02-08T12:09:31Z</time>
      </trkpt>
      <trkpt lat="43.90388" lon="5.13979">
        <ele>318.81</ele>
        <time>2016-02-08T12:09:48Z</time>
      </trkpt>
      <trkpt lat="43.90394" lon="5.1397">
        <ele>318.33</ele>
        <time>2016-02-08T12:10:05Z</time>
      </trkpt>
      <trkpt lat="43.90394" lon="5.13956">
        <ele>316.41</ele>
        <time>2016-02-08T12:10:29Z</time>
      </trkpt>
      <trkpt lat="43.90394" lon="5.13936">
        <ele>314.97</ele>
        <time>2016-02-08T12:10:49Z</time>
      </trkpt>
      <trkpt lat="43.90392" lon="5.13933">
        <ele>314.97</ele>
        <time>2016-02-08T12:11:07Z</time>
      </trkpt>
      <trkpt lat="43.90393" lon="5.13934">
        <ele>314.97</ele>
        <time>2016-02-08T12:11:27Z</time>
      </trkpt>
      <trkpt lat="43.90392" lon="5.13934">
        <ele>315.93</ele>
        <time>2016-02-08T12:11:31Z</time>
      </trkpt>
      <trkpt lat="43.90391" lon="5.13929">
        <ele>315.93</ele>
        <time>2016-02-08T12:11:51Z</time>
      </trkpt>
      <trkpt lat="43.90392" lon="5.1392">
        <ele>314.97</ele>
        <time>2016-02-08T12:12:07Z</time>
      </trkpt>
      <trkpt lat="43.904" lon="5.13912">
        <ele>313.05</ele>
        <time>2016-02-08T12:12:29Z</time>
      </trkpt>
      <trkpt lat="43.90401" lon="5.13913">
        <ele>312.09</ele>
        <time>2016-02-08T12:12:56Z</time>
      </trkpt>
      <trkpt lat="43.90411" lon="5.13919">
        <ele>309.68</ele>
        <time>2016-02-08T12:13:20Z</time>
      </trkpt>
      <trkpt lat="43.90415" lon="5.13911">
        <ele>306.8</ele>
        <time>2016-02-08T12:13:41Z</time>
      </trkpt>
      <trkpt lat="43.90412" lon="5.13904">
        <ele>305.84</ele>
        <time>2016-02-08T12:14:02Z</time>
      </trkpt>
      <trkpt lat="43.90416" lon="5.13888">
        <ele>303.91</ele>
        <time>2016-02-08T12:14:26Z</time>
      </trkpt>
      <trkpt lat="43.90419" lon="5.13883">
        <ele>301.03</ele>
        <time>2016-02-08T12:14:49Z</time>
      </trkpt>
      <trkpt lat="43.90425" lon="5.13877">
        <ele>298.63</ele>
        <time>2016-02-08T12:15:09Z</time>
      </trkpt>
      <trkpt lat="43.90425" lon="5.13868">
        <ele>296.22</ele>
        <time>2016-02-08T12:15:28Z</time>
      </trkpt>
      <trkpt lat="43.9043" lon="5.1385">
        <ele>293.82</ele>
        <time>2016-02-08T12:15:51Z</time>
      </trkpt>
      <trkpt lat="43.90433" lon="5.13832">
        <ele>292.38</ele>
        <time>2016-02-08T12:16:09Z</time>
      </trkpt>
      <trkpt lat="43.90435" lon="5.13826">
        <ele>292.38</ele>
        <time>2016-02-08T12:16:23Z</time>
      </trkpt>
      <trkpt lat="43.90441" lon="5.13815">
        <ele>290.94</ele>
        <time>2016-02-08T12:16:38Z</time>
      </trkpt>
      <trkpt lat="43.90448" lon="5.13799">
        <ele>289.01</ele>
        <time>2016-02-08T12:16:57Z</time>
      </trkpt>
      <trkpt lat="43.90454" lon="5.13789">
        <ele>287.57</ele>
        <time>2016-02-08T12:17:14Z</time>
      </trkpt>
      <trkpt lat="43.90458" lon="5.13777">
        <ele>285.65</ele>
        <time>2016-02-08T12:17:32Z</time>
      </trkpt>
      <trkpt lat="43.90461" lon="5.13766">
        <ele>284.69</ele>
        <time>2016-02-08T12:17:50Z</time>
      </trkpt>
      <trkpt lat="43.90466" lon="5.13759">
        <ele>283.73</ele>
        <time>2016-02-08T12:18:07Z</time>
      </trkpt>
      <trkpt lat="43.90473" lon="5.13749">
        <ele>282.28</ele>
        <time>2016-02-08T12:18:26Z</time>
      </trkpt>
      <trkpt lat="43.9048" lon="5.13735">
        <ele>280.84</ele>
        <time>2016-02-08T12:18:45Z</time>
      </trkpt>
      <trkpt lat="43.90487" lon="5.13717">
        <ele>279.88</ele>
        <time>2016-02-08T12:19:07Z</time>
      </trkpt>
      <trkpt lat="43.90497" lon="5.13703">
        <ele>278.44</ele>
        <time>2016-02-08T12:19:29Z</time>
      </trkpt>
      <trkpt lat="43.90501" lon="5.13684">
        <ele>276.52</ele>
        <time>2016-02-08T12:19:53Z</time>
      </trkpt>
      <trkpt lat="43.90504" lon="5.1366">
        <ele>274.59</ele>
        <time>2016-02-08T12:20:14Z</time>
      </trkpt>
      <trkpt lat="43.90508" lon="5.13637">
        <ele>272.19</ele>
        <time>2016-02-08T12:20:39Z</time>
      </trkpt>
      <trkpt lat="43.90506" lon="5.1361">
        <ele>270.75</ele>
        <time>2016-02-08T12:21:01Z</time>
      </trkpt>
      <trkpt lat="43.90502" lon="5.13593">
        <ele>269.79</ele>
        <time>2016-02-08T12:21:18Z</time>
      </trkpt>
      <trkpt lat="43.90492" lon="5.13578">
        <ele>268.35</ele>
        <time>2016-02-08T12:21:38Z</time>
      </trkpt>
      <trkpt lat="43.90474" lon="5.1357">
        <ele>266.9</ele>
        <time>2016-02-08T12:22:01Z</time>
      </trkpt>
      <trkpt lat="43.90467" lon="5.13566">
        <ele>264.98</ele>
        <time>2016-02-08T12:22:22Z</time>
      </trkpt>
      <trkpt lat="43.90458" lon="5.13561">
        <ele>263.54</ele>
        <time>2016-02-08T12:22:43Z</time>
      </trkpt>
      <trkpt lat="43.90459" lon="5.13548">
        <ele>263.06</ele>
        <time>2016-02-08T12:23:05Z</time>
      </trkpt>
      <trkpt lat="43.90452" lon="5.13548">
        <ele>265.94</ele>
        <time>2016-02-08T12:23:24Z</time>
      </trkpt>
      <trkpt lat="43.90442" lon="5.13544">
        <ele>268.35</ele>
        <time>2016-02-08T12:23:43Z</time>
      </trkpt>
      <trkpt lat="43.90429" lon="5.13528">
        <ele>269.31</ele>
        <time>2016-02-08T12:24:08Z</time>
      </trkpt>
      <trkpt lat="43.90422" lon="5.13517">
        <ele>272.67</ele>
        <time>2016-02-08T12:24:26Z</time>
      </trkpt>
      <trkpt lat="43.90411" lon="5.13509">
        <ele>275.56</ele>
        <time>2016-02-08T12:24:47Z</time>
      </trkpt>
      <trkpt lat="43.90402" lon="5.13501">
        <ele>278.92</ele>
        <time>2016-02-08T12:25:08Z</time>
      </trkpt>
      <trkpt lat="43.90395" lon="5.13496">
        <ele>281.32</ele>
        <time>2016-02-08T12:25:28Z</time>
      </trkpt>
      <trkpt lat="43.90394" lon="5.13495">
        <ele>283.25</ele>
        <time>2016-02-08T12:25:51Z</time>
      </trkpt>
      <trkpt lat="43.90392" lon="5.13493">
        <ele>284.21</ele>
        <time>2016-02-08T12:26:14Z</time>
      </trkpt>
      <trkpt lat="43.90387" lon="5.13488">
        <ele>286.61</ele>
        <time>2016-02-08T12:26:34Z</time>
      </trkpt>
      <trkpt lat="43.90383" lon="5.13481">
        <ele>289.97</ele>
        <time>2016-02-08T12:26:59Z</time>
      </trkpt>
      <trkpt lat="43.90379" lon="5.13472">
        <ele>291.9</ele>
        <time>2016-02-08T12:27:19Z</time>
      </trkpt>
      <trkpt lat="43.90375" lon="5.13471">
        <ele>292.86</ele>
        <time>2016-02-08T12:27:41Z</time>
      </trkpt>
      <trkpt lat="43.90372" lon="5.13463">
        <ele>294.3</ele>
        <time>2016-02-08T12:28:02Z</time>
      </trkpt>
      <trkpt lat="43.90366" lon="5.13456">
        <ele>296.7</ele>
        <time>2016-02-08T12:28:24Z</time>
      </trkpt>
      <trkpt lat="43.9036" lon="5.13449">
        <ele>299.59</ele>
        <time>2016-02-08T12:28:45Z</time>
      </trkpt>
      <trkpt lat="43.90357" lon="5.13434">
        <ele>301.51</ele>
        <time>2016-02-08T12:29:07Z</time>
      </trkpt>
      <trkpt lat="43.90352" lon="5.13417">
        <ele>303.91</ele>
        <time>2016-02-08T12:29:27Z</time>
      </trkpt>
      <trkpt lat="43.90351" lon="5.13404">
        <ele>305.36</ele>
        <time>2016-02-08T12:29:50Z</time>
      </trkpt>
      <trkpt lat="43.90351" lon="5.13403">
        <ele>306.32</ele>
        <time>2016-02-08T12:30:11Z</time>
      </trkpt>
      <trkpt lat="43.90351" lon="5.13402">
        <ele>305.36</ele>
        <time>2016-02-08T12:30:19Z</time>
      </trkpt>
      <trkpt lat="43.90352" lon="5.13402">
        <ele>305.36</ele>
        <time>2016-02-08T12:30:40Z</time>
      </trkpt>
      <trkpt lat="43.90353" lon="5.13404">
        <ele>305.36</ele>
        <time>2016-02-08T12:31:12Z</time>
      </trkpt>
      <trkpt lat="43.90354" lon="5.13402">
        <ele>306.32</ele>
        <time>2016-02-08T12:31:37Z</time>
      </trkpt>
      <trkpt lat="43.90353" lon="5.13404">
        <ele>306.8</ele>
        <time>2016-02-08T12:32:06Z</time>
      </trkpt>
      <trkpt lat="43.90352" lon="5.13403">
        <ele>305.84</ele>
        <time>2016-02-08T12:32:29Z</time>
      </trkpt>
      <trkpt lat="43.90353" lon="5.13399">
        <ele>305.84</ele>
        <time>2016-02-08T12:32:48Z</time>
      </trkpt>
      <trkpt lat="43.9035" lon="5.13379">
        <ele>305.84</ele>
        <time>2016-02-08T12:33:08Z</time>
      </trkpt>
      <trkpt lat="43.90348" lon="5.13346">
        <ele>305.36</ele>
        <time>2016-02-08T12:33:31Z</time>
      </trkpt>
      <trkpt lat="43.90343" lon="5.13329">
        <ele>306.8</ele>
        <time>2016-02-08T12:33:48Z</time>
      </trkpt>
      <trkpt lat="43.90342" lon="5.13318">
        <ele>308.72</ele>
        <time>2016-02-08T12:34:07Z</time>
      </trkpt>
      <trkpt lat="43.9034" lon="5.13307">
        <ele>308.72</ele>
        <time>2016-02-08T12:34:24Z</time>
      </trkpt>
      <trkpt lat="43.90344" lon="5.13293">
        <ele>311.12</ele>
        <time>2016-02-08T12:34:42Z</time>
      </trkpt>
      <trkpt lat="43.90343" lon="5.13289">
        <ele>312.57</ele>
        <time>2016-02-08T12:34:49Z</time>
      </trkpt>
      <trkpt lat="43.90342" lon="5.13273">
        <ele>315.45</ele>
        <time>2016-02-08T12:35:06Z</time>
      </trkpt>
      <trkpt lat="43.90345" lon="5.13262">
        <ele>317.85</ele>
        <time>2016-02-08T12:35:27Z</time>
      </trkpt>
      <trkpt lat="43.90347" lon="5.13255">
        <ele>318.81</ele>
        <time>2016-02-08T12:35:51Z</time>
      </trkpt>
      <trkpt lat="43.90351" lon="5.13247">
        <ele>319.3</ele>
        <time>2016-02-08T12:36:13Z</time>
      </trkpt>
      <trkpt lat="43.9036" lon="5.1323">
        <ele>317.85</ele>
        <time>2016-02-08T12:36:33Z</time>
      </trkpt>
      <trkpt lat="43.90367" lon="5.1321">
        <ele>317.85</ele>
        <time>2016-02-08T12:36:50Z</time>
      </trkpt>
      <trkpt lat="43.90373" lon="5.13187">
        <ele>317.85</ele>
        <time>2016-02-08T12:37:10Z</time>
      </trkpt>
      <trkpt lat="43.90376" lon="5.13174">
        <ele>319.3</ele>
        <time>2016-02-08T12:37:21Z</time>
      </trkpt>
      <trkpt lat="43.90385" lon="5.13157">
        <ele>321.22</ele>
        <time>2016-02-08T12:37:38Z</time>
      </trkpt>
      <trkpt lat="43.90395" lon="5.13132">
        <ele>321.22</ele>
        <time>2016-02-08T12:37:58Z</time>
      </trkpt>
      <trkpt lat="43.90399" lon="5.13112">
        <ele>322.18</ele>
        <time>2016-02-08T12:38:17Z</time>
      </trkpt>
      <trkpt lat="43.90405" lon="5.13085">
        <ele>322.18</ele>
        <time>2016-02-08T12:38:38Z</time>
      </trkpt>
      <trkpt lat="43.90409" lon="5.13068">
        <ele>320.74</ele>
        <time>2016-02-08T12:38:56Z</time>
      </trkpt>
      <trkpt lat="43.90425" lon="5.13061">
        <ele>318.81</ele>
        <time>2016-02-08T12:39:18Z</time>
      </trkpt>
      <trkpt lat="43.90425" lon="5.13061">
        <ele>318.33</ele>
        <time>2016-02-08T12:39:42Z</time>
      </trkpt>
      <trkpt lat="43.90429" lon="5.13058">
        <ele>318.33</ele>
        <time>2016-02-08T12:40:04Z</time>
      </trkpt>
      <trkpt lat="43.90433" lon="5.13054">
        <ele>317.37</ele>
        <time>2016-02-08T12:40:21Z</time>
      </trkpt>
      <trkpt lat="43.90432" lon="5.13052">
        <ele>317.85</ele>
        <time>2016-02-08T12:40:46Z</time>
      </trkpt>
      <trkpt lat="43.90431" lon="5.1305">
        <ele>317.85</ele>
        <time>2016-02-08T12:41:07Z</time>
      </trkpt>
      <trkpt lat="43.9043" lon="5.13047">
        <ele>317.85</ele>
        <time>2016-02-08T12:41:38Z</time>
      </trkpt>
      <trkpt lat="43.90429" lon="5.13049">
        <ele>317.85</ele>
        <time>2016-02-08T12:42:06Z</time>
      </trkpt>
      <trkpt lat="43.90429" lon="5.13049">
        <ele>317.85</ele>
        <time>2016-02-08T12:42:40Z</time>
      </trkpt>
      <trkpt lat="43.9043" lon="5.13048">
        <ele>317.85</ele>
        <time>2016-02-08T12:43:08Z</time>
      </trkpt>
      <trkpt lat="43.9043" lon="5.13047">
        <ele>317.85</ele>
        <time>2016-02-08T12:43:44Z</time>
      </trkpt>
      <trkpt lat="43.90431" lon="5.13049">
        <ele>317.85</ele>
        <time>2016-02-08T12:44:13Z</time>
      </trkpt>
      <trkpt lat="43.9043" lon="5.1305">
        <ele>317.85</ele>
        <time>2016-02-08T12:44:44Z</time>
      </trkpt>
      <trkpt lat="43.90426" lon="5.13059">
        <ele>319.78</ele>
        <time>2016-02-08T12:45:04Z</time>
      </trkpt>
      <trkpt lat="43.90427" lon="5.13059">
        <ele>319.78</ele>
        <time>2016-02-08T12:45:35Z</time>
      </trkpt>
      <trkpt lat="43.90421" lon="5.1306">
        <ele>320.74</ele>
        <time>2016-02-08T12:46:01Z</time>
      </trkpt>
      <trkpt lat="43.90407" lon="5.13059">
        <ele>321.7</ele>
        <time>2016-02-08T12:46:20Z</time>
      </trkpt>
      <trkpt lat="43.90403" lon="5.13057">
        <ele>321.7</ele>
        <time>2016-02-08T12:46:41Z</time>
      </trkpt>
      <trkpt lat="43.90392" lon="5.13046">
        <ele>320.74</ele>
        <time>2016-02-08T12:47:00Z</time>
      </trkpt>
      <trkpt lat="43.90386" lon="5.13045">
        <ele>320.74</ele>
        <time>2016-02-08T12:47:18Z</time>
      </trkpt>
      <trkpt lat="43.90375" lon="5.13031">
        <ele>319.3</ele>
        <time>2016-02-08T12:47:39Z</time>
      </trkpt>
      <trkpt lat="43.90366" lon="5.13022">
        <ele>318.33</ele>
        <time>2016-02-08T12:47:55Z</time>
      </trkpt>
      <trkpt lat="43.90355" lon="5.13008">
        <ele>316.41</ele>
        <time>2016-02-08T12:48:15Z</time>
      </trkpt>
      <trkpt lat="43.90343" lon="5.13014">
        <ele>317.85</ele>
        <time>2016-02-08T12:48:32Z</time>
      </trkpt>
      <trkpt lat="43.90331" lon="5.13015">
        <ele>318.33</ele>
        <time>2016-02-08T12:48:50Z</time>
      </trkpt>
      <trkpt lat="43.90329" lon="5.13016">
        <ele>316.89</ele>
        <time>2016-02-08T12:48:52Z</time>
      </trkpt>
      <trkpt lat="43.90311" lon="5.13017">
        <ele>314.97</ele>
        <time>2016-02-08T12:49:15Z</time>
      </trkpt>
      <trkpt lat="43.90298" lon="5.13023">
        <ele>313.05</ele>
        <time>2016-02-08T12:49:34Z</time>
      </trkpt>
      <trkpt lat="43.90281" lon="5.13031">
        <ele>311.12</ele>
        <time>2016-02-08T12:49:58Z</time>
      </trkpt>
      <trkpt lat="43.90264" lon="5.13042">
        <ele>309.2</ele>
        <time>2016-02-08T12:50:21Z</time>
      </trkpt>
      <trkpt lat="43.90246" lon="5.13038">
        <ele>306.32</ele>
        <time>2016-02-08T12:50:43Z</time>
      </trkpt>
      <trkpt lat="43.90226" lon="5.13036">
        <ele>304.88</ele>
        <time>2016-02-08T12:51:06Z</time>
      </trkpt>
      <trkpt lat="43.90207" lon="5.13024">
        <ele>302.95</ele>
        <time>2016-02-08T12:51:26Z</time>
      </trkpt>
      <trkpt lat="43.90188" lon="5.13011">
        <ele>301.99</ele>
        <time>2016-02-08T12:51:45Z</time>
      </trkpt>
      <trkpt lat="43.90172" lon="5.1299">
        <ele>301.99</ele>
        <time>2016-02-08T12:52:07Z</time>
      </trkpt>
      <trkpt lat="43.90158" lon="5.12974">
        <ele>301.03</ele>
        <time>2016-02-08T12:52:25Z</time>
      </trkpt>
      <trkpt lat="43.90142" lon="5.12961">
        <ele>300.07</ele>
        <time>2016-02-08T12:52:47Z</time>
      </trkpt>
      <trkpt lat="43.90137" lon="5.12952">
        <ele>300.07</ele>
        <time>2016-02-08T12:53:10Z</time>
      </trkpt>
      <trkpt lat="43.90136" lon="5.12949">
        <ele>300.07</ele>
        <time>2016-02-08T12:53:49Z</time>
      </trkpt>
      <trkpt lat="43.90126" lon="5.12943">
        <ele>299.59</ele>
        <time>2016-02-08T12:54:06Z</time>
      </trkpt>
      <trkpt lat="43.90109" lon="5.12943">
        <ele>299.59</ele>
        <time>2016-02-08T12:54:24Z</time>
      </trkpt>
      <trkpt lat="43.90096" lon="5.12942">
        <ele>299.59</ele>
        <time>2016-02-08T12:54:40Z</time>
      </trkpt>
      <trkpt lat="43.90076" lon="5.12948">
        <ele>299.11</ele>
        <time>2016-02-08T12:55:00Z</time>
      </trkpt>
      <trkpt lat="43.90056" lon="5.12947">
        <ele>298.63</ele>
        <time>2016-02-08T12:55:23Z</time>
      </trkpt>
      <trkpt lat="43.90038" lon="5.12949">
        <ele>298.15</ele>
        <time>2016-02-08T12:55:43Z</time>
      </trkpt>
      <trkpt lat="43.90026" lon="5.12966">
        <ele>298.15</ele>
        <time>2016-02-08T12:56:02Z</time>
      </trkpt>
      <trkpt lat="43.90009" lon="5.12983">
        <ele>296.7</ele>
        <time>2016-02-08T12:56:25Z</time>
      </trkpt>
      <trkpt lat="43.89995" lon="5.13006">
        <ele>295.26</ele>
        <time>2016-02-08T12:56:47Z</time>
      </trkpt>
      <trkpt lat="43.89983" lon="5.13028">
        <ele>292.86</ele>
        <time>2016-02-08T12:57:10Z</time>
      </trkpt>
      <trkpt lat="43.89982" lon="5.1305">
        <ele>291.9</ele>
        <time>2016-02-08T12:57:29Z</time>
      </trkpt>
      <trkpt lat="43.8998" lon="5.13071">
        <ele>289.97</ele>
        <time>2016-02-08T12:57:50Z</time>
      </trkpt>
      <trkpt lat="43.89972" lon="5.13101">
        <ele>287.09</ele>
        <time>2016-02-08T12:58:09Z</time>
      </trkpt>
      <trkpt lat="43.89967" lon="5.13118">
        <ele>283.73</ele>
        <time>2016-02-08T12:58:28Z</time>
      </trkpt>
      <trkpt lat="43.89959" lon="5.13131">
        <ele>281.32</ele>
        <time>2016-02-08T12:58:47Z</time>
      </trkpt>
      <trkpt lat="43.89944" lon="5.13137">
        <ele>278.44</ele>
        <time>2016-02-08T12:59:08Z</time>
      </trkpt>
      <trkpt lat="43.89928" lon="5.13144">
        <ele>276.04</ele>
        <time>2016-02-08T12:59:29Z</time>
      </trkpt>
      <trkpt lat="43.89907" lon="5.13153">
        <ele>275.56</ele>
        <time>2016-02-08T12:59:51Z</time>
      </trkpt>
      <trkpt lat="43.89893" lon="5.13151">
        <ele>276.52</ele>
        <time>2016-02-08T13:00:06Z</time>
      </trkpt>
      <trkpt lat="43.89878" lon="5.13149">
        <ele>277.48</ele>
        <time>2016-02-08T13:00:25Z</time>
      </trkpt>
      <trkpt lat="43.89871" lon="5.13154">
        <ele>277.48</ele>
        <time>2016-02-08T13:00:39Z</time>
      </trkpt>
      <trkpt lat="43.89863" lon="5.13154">
        <ele>277.96</ele>
        <time>2016-02-08T13:00:48Z</time>
      </trkpt>
      <trkpt lat="43.89841" lon="5.13156">
        <ele>277.96</ele>
        <time>2016-02-08T13:01:10Z</time>
      </trkpt>
      <trkpt lat="43.89825" lon="5.13146">
        <ele>275.56</ele>
        <time>2016-02-08T13:01:32Z</time>
      </trkpt>
      <trkpt lat="43.89809" lon="5.13125">
        <ele>274.11</ele>
        <time>2016-02-08T13:01:55Z</time>
      </trkpt>
      <trkpt lat="43.89792" lon="5.131">
        <ele>272.19</ele>
        <time>2016-02-08T13:02:19Z</time>
      </trkpt>
      <trkpt lat="43.89783" lon="5.13082">
        <ele>271.71</ele>
        <time>2016-02-08T13:02:34Z</time>
      </trkpt>
      <trkpt lat="43.89779" lon="5.13049">
        <ele>270.75</ele>
        <time>2016-02-08T13:02:57Z</time>
      </trkpt>
      <trkpt lat="43.89772" lon="5.13016">
        <ele>269.79</ele>
        <time>2016-02-08T13:03:21Z</time>
      </trkpt>
      <trkpt lat="43.89759" lon="5.12988">
        <ele>268.35</ele>
        <time>2016-02-08T13:03:43Z</time>
      </trkpt>
      <trkpt lat="43.89741" lon="5.12959">
        <ele>265.94</ele>
        <time>2016-02-08T13:04:10Z</time>
      </trkpt>
      <trkpt lat="43.89728" lon="5.12936">
        <ele>264.02</ele>
        <time>2016-02-08T13:04:32Z</time>
      </trkpt>
      <trkpt lat="43.89712" lon="5.12906">
        <ele>262.58</ele>
        <time>2016-02-08T13:04:55Z</time>
      </trkpt>
      <trkpt lat="43.89704" lon="5.12894">
        <ele>261.14</ele>
        <time>2016-02-08T13:05:07Z</time>
      </trkpt>
      <trkpt lat="43.89692" lon="5.12869">
        <ele>260.17</ele>
        <time>2016-02-08T13:05:28Z</time>
      </trkpt>
      <trkpt lat="43.89684" lon="5.12844">
        <ele>259.21</ele>
        <time>2016-02-08T13:05:47Z</time>
      </trkpt>
      <trkpt lat="43.89674" lon="5.12823">
        <ele>257.77</ele>
        <time>2016-02-08T13:06:06Z</time>
      </trkpt>
      <trkpt lat="43.89659" lon="5.12797">
        <ele>255.37</ele>
        <time>2016-02-08T13:06:31Z</time>
      </trkpt>
      <trkpt lat="43.89661" lon="5.12778">
        <ele>254.41</ele>
        <time>2016-02-08T13:06:45Z</time>
      </trkpt>
      <trkpt lat="43.89659" lon="5.12749">
        <ele>252.48</ele>
        <time>2016-02-08T13:07:07Z</time>
      </trkpt>
      <trkpt lat="43.89651" lon="5.12717">
        <ele>250.08</ele>
        <time>2016-02-08T13:07:32Z</time>
      </trkpt>
      <trkpt lat="43.89644" lon="5.12687">
        <ele>247.2</ele>
        <time>2016-02-08T13:07:54Z</time>
      </trkpt>
      <trkpt lat="43.89647" lon="5.12677">
        <ele>246.72</ele>
        <time>2016-02-08T13:08:01Z</time>
      </trkpt>
      <trkpt lat="43.89669" lon="5.12654">
        <ele>246.72</ele>
        <time>2016-02-08T13:08:25Z</time>
      </trkpt>
      <trkpt lat="43.89691" lon="5.12641">
        <ele>245.27</ele>
        <time>2016-02-08T13:08:47Z</time>
      </trkpt>
      <trkpt lat="43.89707" lon="5.12616">
        <ele>242.39</ele>
        <time>2016-02-08T13:09:12Z</time>
      </trkpt>
      <trkpt lat="43.89717" lon="5.12586">
        <ele>239.99</ele>
        <time>2016-02-08T13:09:36Z</time>
      </trkpt>
      <trkpt lat="43.89728" lon="5.12563">
        <ele>238.06</ele>
        <time>2016-02-08T13:09:58Z</time>
      </trkpt>
      <trkpt lat="43.89739" lon="5.12543">
        <ele>236.14</ele>
        <time>2016-02-08T13:10:18Z</time>
      </trkpt>
      <trkpt lat="43.8974" lon="5.12515">
        <ele>233.74</ele>
        <time>2016-02-08T13:10:41Z</time>
      </trkpt>
      <trkpt lat="43.89726" lon="5.12488">
        <ele>230.85</ele>
        <time>2016-02-08T13:11:06Z</time>
      </trkpt>
      <trkpt lat="43.89715" lon="5.12473">
        <ele>228.45</ele>
        <time>2016-02-08T13:11:23Z</time>
      </trkpt>
      <trkpt lat="43.89719" lon="5.12459">
        <ele>226.05</ele>
        <time>2016-02-08T13:11:42Z</time>
      </trkpt>
      <trkpt lat="43.8974" lon="5.12467">
        <ele>225.09</ele>
        <time>2016-02-08T13:12:04Z</time>
      </trkpt>
      <trkpt lat="43.89767" lon="5.12486">
        <ele>224.61</ele>
        <time>2016-02-08T13:12:32Z</time>
      </trkpt>
      <trkpt lat="43.89785" lon="5.12495">
        <ele>223.16</ele>
        <time>2016-02-08T13:12:52Z</time>
      </trkpt>
      <trkpt lat="43.89783" lon="5.12475">
        <ele>219.32</ele>
        <time>2016-02-08T13:13:11Z</time>
      </trkpt>
      <trkpt lat="43.89771" lon="5.12456">
        <ele>217.4</ele>
        <time>2016-02-08T13:13:31Z</time>
      </trkpt>
      <trkpt lat="43.89757" lon="5.12436">
        <ele>214.51</ele>
        <time>2016-02-08T13:13:55Z</time>
      </trkpt>
      <trkpt lat="43.89745" lon="5.12421">
        <ele>214.03</ele>
        <time>2016-02-08T13:14:13Z</time>
      </trkpt>
      <trkpt lat="43.89742" lon="5.12418">
        <ele>212.59</ele>
        <time>2016-02-08T13:14:18Z</time>
      </trkpt>
      <trkpt lat="43.8973" lon="5.124">
        <ele>210.19</ele>
        <time>2016-02-08T13:14:37Z</time>
      </trkpt>
      <trkpt lat="43.89728" lon="5.12396">
        <ele>210.19</ele>
        <time>2016-02-08T13:14:41Z</time>
      </trkpt>
      <trkpt lat="43.89713" lon="5.12378">
        <ele>208.26</ele>
        <time>2016-02-08T13:15:01Z</time>
      </trkpt>
      <trkpt lat="43.89696" lon="5.12359">
        <ele>205.86</ele>
        <time>2016-02-08T13:15:23Z</time>
      </trkpt>
      <trkpt lat="43.89676" lon="5.12351">
        <ele>203.94</ele>
        <time>2016-02-08T13:15:47Z</time>
      </trkpt>
      <trkpt lat="43.89661" lon="5.1234">
        <ele>202.49</ele>
        <time>2016-02-08T13:16:05Z</time>
      </trkpt>
      <trkpt lat="43.89648" lon="5.12333">
        <ele>201.05</ele>
        <time>2016-02-08T13:16:27Z</time>
      </trkpt>
      <trkpt lat="43.89647" lon="5.1233">
        <ele>201.05</ele>
        <time>2016-02-08T13:17:02Z</time>
      </trkpt>
      <trkpt lat="43.8964" lon="5.12324">
        <ele>199.61</ele>
        <time>2016-02-08T13:17:29Z</time>
      </trkpt>
      <trkpt lat="43.89632" lon="5.12319">
        <ele>198.65</ele>
        <time>2016-02-08T13:17:50Z</time>
      </trkpt>
      <trkpt lat="43.89617" lon="5.12302">
        <ele>196.73</ele>
        <time>2016-02-08T13:18:13Z</time>
      </trkpt>
      <trkpt lat="43.89599" lon="5.12285">
        <ele>194.8</ele>
        <time>2016-02-08T13:18:36Z</time>
      </trkpt>
      <trkpt lat="43.8958" lon="5.12272">
        <ele>192.4</ele>
        <time>2016-02-08T13:19:00Z</time>
      </trkpt>
      <trkpt lat="43.89563" lon="5.1226">
        <ele>190</ele>
        <time>2016-02-08T13:19:22Z</time>
      </trkpt>
      <trkpt lat="43.89549" lon="5.12239">
        <ele>186.63</ele>
        <time>2016-02-08T13:19:46Z</time>
      </trkpt>
      <trkpt lat="43.89542" lon="5.1221">
        <ele>184.23</ele>
        <time>2016-02-08T13:20:11Z</time>
      </trkpt>
      <trkpt lat="43.89526" lon="5.12199">
        <ele>181.83</ele>
        <time>2016-02-08T13:20:32Z</time>
      </trkpt>
      <trkpt lat="43.89514" lon="5.12209">
        <ele>179.9</ele>
        <time>2016-02-08T13:20:52Z</time>
      </trkpt>
      <trkpt lat="43.89496" lon="5.12226">
        <ele>178.94</ele>
        <time>2016-02-08T13:21:16Z</time>
      </trkpt>
      <trkpt lat="43.89495" lon="5.12228">
        <ele>178.94</ele>
        <time>2016-02-08T13:21:17Z</time>
      </trkpt>
      <trkpt lat="43.89488" lon="5.12231">
        <ele>178.46</ele>
        <time>2016-02-08T13:21:27Z</time>
      </trkpt>
      <trkpt lat="43.89477" lon="5.12217">
        <ele>176.06</ele>
        <time>2016-02-08T13:21:48Z</time>
      </trkpt>
      <trkpt lat="43.89464" lon="5.1219">
        <ele>172.69</ele>
        <time>2016-02-08T13:22:08Z</time>
      </trkpt>
      <trkpt lat="43.89454" lon="5.1217">
        <ele>170.29</ele>
        <time>2016-02-08T13:22:29Z</time>
      </trkpt>
      <trkpt lat="43.89439" lon="5.12137">
        <ele>168.85</ele>
        <time>2016-02-08T13:22:54Z</time>
      </trkpt>
      <trkpt lat="43.89424" lon="5.12112">
        <ele>167.41</ele>
        <time>2016-02-08T13:23:15Z</time>
      </trkpt>
      <trkpt lat="43.89411" lon="5.12092">
        <ele>165.96</ele>
        <time>2016-02-08T13:23:34Z</time>
      </trkpt>
      <trkpt lat="43.89404" lon="5.12067">
        <ele>162.6</ele>
        <time>2016-02-08T13:23:51Z</time>
      </trkpt>
      <trkpt lat="43.89403" lon="5.12044">
        <ele>159.72</ele>
        <time>2016-02-08T13:24:09Z</time>
      </trkpt>
      <trkpt lat="43.89405" lon="5.12018">
        <ele>157.31</ele>
        <time>2016-02-08T13:24:30Z</time>
      </trkpt>
      <trkpt lat="43.89407" lon="5.11982">
        <ele>155.39</ele>
        <time>2016-02-08T13:24:55Z</time>
      </trkpt>
      <trkpt lat="43.894" lon="5.11952">
        <ele>153.95</ele>
        <time>2016-02-08T13:25:17Z</time>
      </trkpt>
      <trkpt lat="43.89396" lon="5.11919">
        <ele>152.03</ele>
        <time>2016-02-08T13:25:41Z</time>
      </trkpt>
      <trkpt lat="43.89401" lon="5.11893">
        <ele>149.14</ele>
        <time>2016-02-08T13:26:04Z</time>
      </trkpt>
      <trkpt lat="43.89408" lon="5.11872">
        <ele>148.18</ele>
        <time>2016-02-08T13:26:25Z</time>
      </trkpt>
      <trkpt lat="43.89421" lon="5.11833">
        <ele>146.74</ele>
        <time>2016-02-08T13:26:49Z</time>
      </trkpt>
      <trkpt lat="43.89436" lon="5.11806">
        <ele>143.85</ele>
        <time>2016-02-08T13:27:13Z</time>
      </trkpt>
      <trkpt lat="43.89431" lon="5.11778">
        <ele>140.01</ele>
        <time>2016-02-08T13:27:36Z</time>
      </trkpt>
      <trkpt lat="43.8943" lon="5.11753">
        <ele>137.61</ele>
        <time>2016-02-08T13:27:58Z</time>
      </trkpt>
      <trkpt lat="43.89429" lon="5.11734">
        <ele>137.13</ele>
        <time>2016-02-08T13:28:14Z</time>
      </trkpt>
      <trkpt lat="43.8943" lon="5.11728">
        <ele>136.64</ele>
        <time>2016-02-08T13:28:32Z</time>
      </trkpt>
      <trkpt lat="43.89428" lon="5.11723">
        <ele>136.16</ele>
        <time>2016-02-08T13:28:38Z</time>
      </trkpt>
      <trkpt lat="43.89413" lon="5.11689">
        <ele>135.2</ele>
        <time>2016-02-08T13:29:03Z</time>
      </trkpt>
      <trkpt lat="43.89401" lon="5.11658">
        <ele>133.76</ele>
        <time>2016-02-08T13:29:26Z</time>
      </trkpt>
      <trkpt lat="43.89401" lon="5.11652">
        <ele>133.28</ele>
        <time>2016-02-08T13:29:44Z</time>
      </trkpt>
      <trkpt lat="43.89398" lon="5.11642">
        <ele>132.8</ele>
        <time>2016-02-08T13:29:59Z</time>
      </trkpt>
      <trkpt lat="43.89402" lon="5.11621">
        <ele>132.32</ele>
        <time>2016-02-08T13:30:19Z</time>
      </trkpt>
      <trkpt lat="43.8941" lon="5.11608">
        <ele>132.32</ele>
        <time>2016-02-08T13:30:39Z</time>
      </trkpt>
      <trkpt lat="43.89428" lon="5.1159">
        <ele>133.28</ele>
        <time>2016-02-08T13:31:01Z</time>
      </trkpt>
      <trkpt lat="43.8943" lon="5.11575">
        <ele>132.32</ele>
        <time>2016-02-08T13:31:19Z</time>
      </trkpt>
      <trkpt lat="43.89411" lon="5.11566">
        <ele>129.92</ele>
        <time>2016-02-08T13:31:43Z</time>
      </trkpt>
      <trkpt lat="43.89388" lon="5.11555">
        <ele>128.47</ele>
        <time>2016-02-08T13:32:08Z</time>
      </trkpt>
      <trkpt lat="43.89368" lon="5.11547">
        <ele>128.47</ele>
        <time>2016-02-08T13:32:28Z</time>
      </trkpt>
      <trkpt lat="43.89357" lon="5.11535">
        <ele>128.47</ele>
        <time>2016-02-08T13:32:50Z</time>
      </trkpt>
      <trkpt lat="43.89346" lon="5.11538">
        <ele>127.51</ele>
        <time>2016-02-08T13:33:13Z</time>
      </trkpt>
      <trkpt lat="43.89339" lon="5.11517">
        <ele>125.11</ele>
        <time>2016-02-08T13:33:35Z</time>
      </trkpt>
      <trkpt lat="43.89338" lon="5.11491">
        <ele>123.19</ele>
        <time>2016-02-08T13:33:58Z</time>
      </trkpt>
      <trkpt lat="43.89321" lon="5.11472">
        <ele>121.26</ele>
        <time>2016-02-08T13:34:19Z</time>
      </trkpt>
      <trkpt lat="43.893" lon="5.11454">
        <ele>119.82</ele>
        <time>2016-02-08T13:34:41Z</time>
      </trkpt>
      <trkpt lat="43.89287" lon="5.11449">
        <ele>118.38</ele>
        <time>2016-02-08T13:35:02Z</time>
      </trkpt>
      <trkpt lat="43.89266" lon="5.11433">
        <ele>117.42</ele>
        <time>2016-02-08T13:35:23Z</time>
      </trkpt>
      <trkpt lat="43.89255" lon="5.11426">
        <ele>117.42</ele>
        <time>2016-02-08T13:35:35Z</time>
      </trkpt>
      <trkpt lat="43.8924" lon="5.1141">
        <ele>115.98</ele>
        <time>2016-02-08T13:35:54Z</time>
      </trkpt>
      <trkpt lat="43.89224" lon="5.11397">
        <ele>115.5</ele>
        <time>2016-02-08T13:36:12Z</time>
      </trkpt>
      <trkpt lat="43.89214" lon="5.1138">
        <ele>114.05</ele>
        <time>2016-02-08T13:36:34Z</time>
      </trkpt>
      <trkpt lat="43.89208" lon="5.11359">
        <ele>114.05</ele>
        <time>2016-02-08T13:36:53Z</time>
      </trkpt>
      <trkpt lat="43.8921" lon="5.11349">
        <ele>114.05</ele>
        <time>2016-02-08T13:37:16Z</time>
      </trkpt>
      <trkpt lat="43.89209" lon="5.11348">
        <ele>114.53</ele>
        <time>2016-02-08T13:37:33Z</time>
      </trkpt>
      <trkpt lat="43.89209" lon="5.11349">
        <ele>113.09</ele>
        <time>2016-02-08T13:37:43Z</time>
      </trkpt>
    </trkseg>
  </trk>
</gpx>